<?xml version="1.0" encoding="UTF-8" standalone="no" ?>
<gpx xmlns="http://www.topografix.com/GPX/1/1" xmlns:xsi="http://www.w3.org/2001/XMLSchema-instance" xsi:schemaLocation="http://www.topografix.com/GPX/1/1 http://www.topografix.com/GPX/1/1/gpx.xsd" version="1.1" creator="VisuGPX - https://www.visugpx.com">
  <metadata>
    <name>Moyens, boucle du 14/12/2013</name>
    <desc><![CDATA[Boucle des Moyens]]></desc>
  </metadata>
  <trk>
    <name><![CDATA[14-DEC-13 boucle des moyens]]></name>
    <trkseg>
      <trkpt lat="43.00732" lon="-0.09496">
        <ele>427.92</ele>
        <time>2013-12-14T09:41:29Z</time>
      </trkpt>
      <trkpt lat="43.00732" lon="-0.09496">
        <ele>429.37</ele>
        <time>2013-12-14T09:41:31Z</time>
      </trkpt>
      <trkpt lat="43.00732" lon="-0.09496">
        <ele>428.89</ele>
        <time>2013-12-14T09:41:45Z</time>
      </trkpt>
      <trkpt lat="43.00736" lon="-0.09493">
        <ele>428.89</ele>
        <time>2013-12-14T09:41:53Z</time>
      </trkpt>
      <trkpt lat="43.00742" lon="-0.09504">
        <ele>428.89</ele>
        <time>2013-12-14T09:41:58Z</time>
      </trkpt>
      <trkpt lat="43.00758" lon="-0.0949">
        <ele>428.89</ele>
        <time>2013-12-14T09:42:08Z</time>
      </trkpt>
      <trkpt lat="43.00758" lon="-0.09487">
        <ele>428.89</ele>
        <time>2013-12-14T09:42:09Z</time>
      </trkpt>
      <trkpt lat="43.00755" lon="-0.09479">
        <ele>428.4</ele>
        <time>2013-12-14T09:42:11Z</time>
      </trkpt>
      <trkpt lat="43.00737" lon="-0.0946">
        <ele>428.4</ele>
        <time>2013-12-14T09:42:25Z</time>
      </trkpt>
      <trkpt lat="43.00737" lon="-0.0946">
        <ele>428.4</ele>
        <time>2013-12-14T09:42:27Z</time>
      </trkpt>
      <trkpt lat="43.00716" lon="-0.09431">
        <ele>428.4</ele>
        <time>2013-12-14T09:42:38Z</time>
      </trkpt>
      <trkpt lat="43.0068" lon="-0.09388">
        <ele>428.89</ele>
        <time>2013-12-14T09:42:53Z</time>
      </trkpt>
      <trkpt lat="43.00645" lon="-0.09344">
        <ele>428.4</ele>
        <time>2013-12-14T09:43:08Z</time>
      </trkpt>
      <trkpt lat="43.00641" lon="-0.0934">
        <ele>428.89</ele>
        <time>2013-12-14T09:43:13Z</time>
      </trkpt>
      <trkpt lat="43.00632" lon="-0.09329">
        <ele>428.89</ele>
        <time>2013-12-14T09:43:21Z</time>
      </trkpt>
      <trkpt lat="43.00622" lon="-0.09316">
        <ele>428.4</ele>
        <time>2013-12-14T09:43:27Z</time>
      </trkpt>
      <trkpt lat="43.00582" lon="-0.09269">
        <ele>428.4</ele>
        <time>2013-12-14T09:43:42Z</time>
      </trkpt>
      <trkpt lat="43.00536" lon="-0.09214">
        <ele>428.4</ele>
        <time>2013-12-14T09:43:58Z</time>
      </trkpt>
      <trkpt lat="43.00478" lon="-0.09146">
        <ele>428.89</ele>
        <time>2013-12-14T09:44:17Z</time>
      </trkpt>
      <trkpt lat="43.00472" lon="-0.09139">
        <ele>428.4</ele>
        <time>2013-12-14T09:44:19Z</time>
      </trkpt>
      <trkpt lat="43.00421" lon="-0.09092">
        <ele>428.89</ele>
        <time>2013-12-14T09:44:34Z</time>
      </trkpt>
      <trkpt lat="43.00342" lon="-0.09035">
        <ele>429.85</ele>
        <time>2013-12-14T09:44:55Z</time>
      </trkpt>
      <trkpt lat="43.00312" lon="-0.09016">
        <ele>429.85</ele>
        <time>2013-12-14T09:45:03Z</time>
      </trkpt>
      <trkpt lat="43.00244" lon="-0.08967">
        <ele>430.33</ele>
        <time>2013-12-14T09:45:21Z</time>
      </trkpt>
      <trkpt lat="43.00183" lon="-0.08926">
        <ele>430.81</ele>
        <time>2013-12-14T09:45:37Z</time>
      </trkpt>
      <trkpt lat="43.00159" lon="-0.08908">
        <ele>431.29</ele>
        <time>2013-12-14T09:45:46Z</time>
      </trkpt>
      <trkpt lat="43.0016" lon="-0.08909">
        <ele>431.29</ele>
        <time>2013-12-14T09:45:48Z</time>
      </trkpt>
      <trkpt lat="43.00167" lon="-0.08913">
        <ele>431.29</ele>
        <time>2013-12-14T09:46:04Z</time>
      </trkpt>
      <trkpt lat="43.00167" lon="-0.08914">
        <ele>431.29</ele>
        <time>2013-12-14T09:46:29Z</time>
      </trkpt>
      <trkpt lat="43.00167" lon="-0.08913">
        <ele>431.29</ele>
        <time>2013-12-14T09:46:52Z</time>
      </trkpt>
      <trkpt lat="43.00167" lon="-0.08912">
        <ele>431.29</ele>
        <time>2013-12-14T09:46:53Z</time>
      </trkpt>
      <trkpt lat="43.00164" lon="-0.08908">
        <ele>430.81</ele>
        <time>2013-12-14T09:47:07Z</time>
      </trkpt>
      <trkpt lat="43.00163" lon="-0.08908">
        <ele>430.33</ele>
        <time>2013-12-14T09:47:52Z</time>
      </trkpt>
      <trkpt lat="43.00164" lon="-0.08907">
        <ele>430.81</ele>
        <time>2013-12-14T09:48:33Z</time>
      </trkpt>
      <trkpt lat="43.00164" lon="-0.08907">
        <ele>430.33</ele>
        <time>2013-12-14T09:49:09Z</time>
      </trkpt>
      <trkpt lat="43.00163" lon="-0.08908">
        <ele>431.29</ele>
        <time>2013-12-14T09:49:47Z</time>
      </trkpt>
      <trkpt lat="43.00164" lon="-0.08907">
        <ele>431.29</ele>
        <time>2013-12-14T09:50:29Z</time>
      </trkpt>
      <trkpt lat="43.00163" lon="-0.0891">
        <ele>431.77</ele>
        <time>2013-12-14T09:50:44Z</time>
      </trkpt>
      <trkpt lat="43.00162" lon="-0.08909">
        <ele>430.33</ele>
        <time>2013-12-14T09:51:05Z</time>
      </trkpt>
      <trkpt lat="43.00161" lon="-0.08909">
        <ele>431.29</ele>
        <time>2013-12-14T09:51:40Z</time>
      </trkpt>
      <trkpt lat="43.00161" lon="-0.08909">
        <ele>431.77</ele>
        <time>2013-12-14T09:51:58Z</time>
      </trkpt>
      <trkpt lat="43.00161" lon="-0.0891">
        <ele>431.29</ele>
        <time>2013-12-14T09:52:25Z</time>
      </trkpt>
      <trkpt lat="43.00161" lon="-0.0891">
        <ele>431.29</ele>
        <time>2013-12-14T09:52:55Z</time>
      </trkpt>
      <trkpt lat="43.0016" lon="-0.0891">
        <ele>431.77</ele>
        <time>2013-12-14T09:53:18Z</time>
      </trkpt>
      <trkpt lat="43.0016" lon="-0.0891">
        <ele>431.77</ele>
        <time>2013-12-14T09:53:35Z</time>
      </trkpt>
      <trkpt lat="43.0014" lon="-0.08895">
        <ele>431.29</ele>
        <time>2013-12-14T09:53:45Z</time>
      </trkpt>
      <trkpt lat="43.00131" lon="-0.0889">
        <ele>431.77</ele>
        <time>2013-12-14T09:53:48Z</time>
      </trkpt>
      <trkpt lat="43.00077" lon="-0.08851">
        <ele>431.77</ele>
        <time>2013-12-14T09:54:05Z</time>
      </trkpt>
      <trkpt lat="43.00022" lon="-0.08813">
        <ele>432.25</ele>
        <time>2013-12-14T09:54:21Z</time>
      </trkpt>
      <trkpt lat="42.99977" lon="-0.08781">
        <ele>432.25</ele>
        <time>2013-12-14T09:54:35Z</time>
      </trkpt>
      <trkpt lat="42.99974" lon="-0.08773">
        <ele>431.29</ele>
        <time>2013-12-14T09:54:41Z</time>
      </trkpt>
      <trkpt lat="42.99973" lon="-0.08771">
        <ele>430.81</ele>
        <time>2013-12-14T09:54:42Z</time>
      </trkpt>
      <trkpt lat="42.99961" lon="-0.08758">
        <ele>427.44</ele>
        <time>2013-12-14T09:54:46Z</time>
      </trkpt>
      <trkpt lat="42.99947" lon="-0.08748">
        <ele>427.92</ele>
        <time>2013-12-14T09:54:50Z</time>
      </trkpt>
      <trkpt lat="42.99933" lon="-0.08721">
        <ele>426.96</ele>
        <time>2013-12-14T09:54:56Z</time>
      </trkpt>
      <trkpt lat="42.999" lon="-0.08698">
        <ele>426.96</ele>
        <time>2013-12-14T09:55:08Z</time>
      </trkpt>
      <trkpt lat="42.99869" lon="-0.08679">
        <ele>426.96</ele>
        <time>2013-12-14T09:55:22Z</time>
      </trkpt>
      <trkpt lat="42.99836" lon="-0.08657">
        <ele>426.48</ele>
        <time>2013-12-14T09:55:34Z</time>
      </trkpt>
      <trkpt lat="42.99825" lon="-0.08649">
        <ele>425.04</ele>
        <time>2013-12-14T09:55:37Z</time>
      </trkpt>
      <trkpt lat="42.99806" lon="-0.08639">
        <ele>424.08</ele>
        <time>2013-12-14T09:55:44Z</time>
      </trkpt>
      <trkpt lat="42.99795" lon="-0.08635">
        <ele>424.08</ele>
        <time>2013-12-14T09:55:52Z</time>
      </trkpt>
      <trkpt lat="42.99795" lon="-0.08634">
        <ele>424.08</ele>
        <time>2013-12-14T09:56:01Z</time>
      </trkpt>
      <trkpt lat="42.99792" lon="-0.08614">
        <ele>424.08</ele>
        <time>2013-12-14T09:56:08Z</time>
      </trkpt>
      <trkpt lat="42.99791" lon="-0.08544">
        <ele>424.08</ele>
        <time>2013-12-14T09:56:22Z</time>
      </trkpt>
      <trkpt lat="42.99791" lon="-0.08521">
        <ele>423.6</ele>
        <time>2013-12-14T09:56:26Z</time>
      </trkpt>
      <trkpt lat="42.99791" lon="-0.08476">
        <ele>422.16</ele>
        <time>2013-12-14T09:56:33Z</time>
      </trkpt>
      <trkpt lat="42.99808" lon="-0.08426">
        <ele>421.68</ele>
        <time>2013-12-14T09:56:41Z</time>
      </trkpt>
      <trkpt lat="42.99813" lon="-0.08404">
        <ele>421.68</ele>
        <time>2013-12-14T09:56:46Z</time>
      </trkpt>
      <trkpt lat="42.99815" lon="-0.08398">
        <ele>421.68</ele>
        <time>2013-12-14T09:56:48Z</time>
      </trkpt>
      <trkpt lat="42.99814" lon="-0.08343">
        <ele>421.68</ele>
        <time>2013-12-14T09:57:00Z</time>
      </trkpt>
      <trkpt lat="42.99815" lon="-0.08265">
        <ele>421.68</ele>
        <time>2013-12-14T09:57:15Z</time>
      </trkpt>
      <trkpt lat="42.99806" lon="-0.08259">
        <ele>421.68</ele>
        <time>2013-12-14T09:57:19Z</time>
      </trkpt>
      <trkpt lat="42.99768" lon="-0.08271">
        <ele>421.68</ele>
        <time>2013-12-14T09:57:32Z</time>
      </trkpt>
      <trkpt lat="42.99751" lon="-0.08252">
        <ele>421.68</ele>
        <time>2013-12-14T09:57:40Z</time>
      </trkpt>
      <trkpt lat="42.99743" lon="-0.08249">
        <ele>421.68</ele>
        <time>2013-12-14T09:57:43Z</time>
      </trkpt>
      <trkpt lat="42.99704" lon="-0.08226">
        <ele>422.16</ele>
        <time>2013-12-14T09:57:59Z</time>
      </trkpt>
      <trkpt lat="42.99676" lon="-0.08216">
        <ele>422.16</ele>
        <time>2013-12-14T09:58:10Z</time>
      </trkpt>
      <trkpt lat="42.99648" lon="-0.08192">
        <ele>422.16</ele>
        <time>2013-12-14T09:58:22Z</time>
      </trkpt>
      <trkpt lat="42.99619" lon="-0.08152">
        <ele>422.16</ele>
        <time>2013-12-14T09:58:36Z</time>
      </trkpt>
      <trkpt lat="42.99577" lon="-0.08119">
        <ele>423.12</ele>
        <time>2013-12-14T09:58:52Z</time>
      </trkpt>
      <trkpt lat="42.99536" lon="-0.08106">
        <ele>423.6</ele>
        <time>2013-12-14T09:59:05Z</time>
      </trkpt>
      <trkpt lat="42.99492" lon="-0.08095">
        <ele>423.6</ele>
        <time>2013-12-14T09:59:19Z</time>
      </trkpt>
      <trkpt lat="42.99455" lon="-0.08087">
        <ele>423.12</ele>
        <time>2013-12-14T09:59:32Z</time>
      </trkpt>
      <trkpt lat="42.99411" lon="-0.08099">
        <ele>423.6</ele>
        <time>2013-12-14T09:59:48Z</time>
      </trkpt>
      <trkpt lat="42.99382" lon="-0.08109">
        <ele>423.12</ele>
        <time>2013-12-14T09:59:59Z</time>
      </trkpt>
      <trkpt lat="42.99383" lon="-0.0812">
        <ele>423.6</ele>
        <time>2013-12-14T10:00:04Z</time>
      </trkpt>
      <trkpt lat="42.99408" lon="-0.08152">
        <ele>423.6</ele>
        <time>2013-12-14T10:00:16Z</time>
      </trkpt>
      <trkpt lat="42.99432" lon="-0.0818">
        <ele>423.12</ele>
        <time>2013-12-14T10:00:25Z</time>
      </trkpt>
      <trkpt lat="42.99431" lon="-0.08192">
        <ele>423.12</ele>
        <time>2013-12-14T10:00:29Z</time>
      </trkpt>
      <trkpt lat="42.99426" lon="-0.08205">
        <ele>423.12</ele>
        <time>2013-12-14T10:00:34Z</time>
      </trkpt>
      <trkpt lat="42.99411" lon="-0.08239">
        <ele>422.64</ele>
        <time>2013-12-14T10:00:46Z</time>
      </trkpt>
      <trkpt lat="42.99376" lon="-0.08255">
        <ele>422.64</ele>
        <time>2013-12-14T10:00:58Z</time>
      </trkpt>
      <trkpt lat="42.99339" lon="-0.0827">
        <ele>423.6</ele>
        <time>2013-12-14T10:01:11Z</time>
      </trkpt>
      <trkpt lat="42.99295" lon="-0.08271">
        <ele>423.12</ele>
        <time>2013-12-14T10:01:25Z</time>
      </trkpt>
      <trkpt lat="42.9926" lon="-0.08275">
        <ele>423.6</ele>
        <time>2013-12-14T10:01:37Z</time>
      </trkpt>
      <trkpt lat="42.99226" lon="-0.08265">
        <ele>424.08</ele>
        <time>2013-12-14T10:01:50Z</time>
      </trkpt>
      <trkpt lat="42.99202" lon="-0.08243">
        <ele>424.08</ele>
        <time>2013-12-14T10:02:01Z</time>
      </trkpt>
      <trkpt lat="42.99165" lon="-0.08218">
        <ele>424.56</ele>
        <time>2013-12-14T10:02:13Z</time>
      </trkpt>
      <trkpt lat="42.99151" lon="-0.08212">
        <ele>424.08</ele>
        <time>2013-12-14T10:02:17Z</time>
      </trkpt>
      <trkpt lat="42.99125" lon="-0.08174">
        <ele>424.56</ele>
        <time>2013-12-14T10:02:27Z</time>
      </trkpt>
      <trkpt lat="42.99097" lon="-0.08161">
        <ele>425.52</ele>
        <time>2013-12-14T10:02:36Z</time>
      </trkpt>
      <trkpt lat="42.9906" lon="-0.08145">
        <ele>426</ele>
        <time>2013-12-14T10:02:48Z</time>
      </trkpt>
      <trkpt lat="42.99026" lon="-0.08107">
        <ele>425.52</ele>
        <time>2013-12-14T10:03:03Z</time>
      </trkpt>
      <trkpt lat="42.99009" lon="-0.08068">
        <ele>426</ele>
        <time>2013-12-14T10:03:14Z</time>
      </trkpt>
      <trkpt lat="42.98996" lon="-0.08027">
        <ele>426.48</ele>
        <time>2013-12-14T10:03:26Z</time>
      </trkpt>
      <trkpt lat="42.98988" lon="-0.08001">
        <ele>426.48</ele>
        <time>2013-12-14T10:03:33Z</time>
      </trkpt>
      <trkpt lat="42.98999" lon="-0.07995">
        <ele>426.48</ele>
        <time>2013-12-14T10:03:39Z</time>
      </trkpt>
      <trkpt lat="42.99008" lon="-0.07989">
        <ele>426.48</ele>
        <time>2013-12-14T10:03:42Z</time>
      </trkpt>
      <trkpt lat="42.99014" lon="-0.07989">
        <ele>426.96</ele>
        <time>2013-12-14T10:03:44Z</time>
      </trkpt>
      <trkpt lat="42.99032" lon="-0.08001">
        <ele>426.96</ele>
        <time>2013-12-14T10:03:51Z</time>
      </trkpt>
      <trkpt lat="42.9904" lon="-0.07997">
        <ele>426.96</ele>
        <time>2013-12-14T10:03:55Z</time>
      </trkpt>
      <trkpt lat="42.99061" lon="-0.08023">
        <ele>426.48</ele>
        <time>2013-12-14T10:04:05Z</time>
      </trkpt>
      <trkpt lat="42.99083" lon="-0.08052">
        <ele>426.48</ele>
        <time>2013-12-14T10:04:13Z</time>
      </trkpt>
      <trkpt lat="42.99109" lon="-0.08071">
        <ele>426.48</ele>
        <time>2013-12-14T10:04:21Z</time>
      </trkpt>
      <trkpt lat="42.99109" lon="-0.08079">
        <ele>425.52</ele>
        <time>2013-12-14T10:04:29Z</time>
      </trkpt>
      <trkpt lat="42.99109" lon="-0.08059">
        <ele>425.52</ele>
        <time>2013-12-14T10:04:37Z</time>
      </trkpt>
      <trkpt lat="42.99124" lon="-0.0806">
        <ele>426</ele>
        <time>2013-12-14T10:04:44Z</time>
      </trkpt>
      <trkpt lat="42.99124" lon="-0.08062">
        <ele>426</ele>
        <time>2013-12-14T10:04:45Z</time>
      </trkpt>
      <trkpt lat="42.99116" lon="-0.08063">
        <ele>425.52</ele>
        <time>2013-12-14T10:04:49Z</time>
      </trkpt>
      <trkpt lat="42.99102" lon="-0.08046">
        <ele>426</ele>
        <time>2013-12-14T10:04:55Z</time>
      </trkpt>
      <trkpt lat="42.99106" lon="-0.08028">
        <ele>426.48</ele>
        <time>2013-12-14T10:05:01Z</time>
      </trkpt>
      <trkpt lat="42.9911" lon="-0.07996">
        <ele>426.48</ele>
        <time>2013-12-14T10:05:10Z</time>
      </trkpt>
      <trkpt lat="42.99113" lon="-0.07991">
        <ele>426.96</ele>
        <time>2013-12-14T10:05:12Z</time>
      </trkpt>
      <trkpt lat="42.99109" lon="-0.07972">
        <ele>426.96</ele>
        <time>2013-12-14T10:05:17Z</time>
      </trkpt>
      <trkpt lat="42.99077" lon="-0.07948">
        <ele>426.48</ele>
        <time>2013-12-14T10:05:30Z</time>
      </trkpt>
      <trkpt lat="42.99042" lon="-0.07938">
        <ele>426.48</ele>
        <time>2013-12-14T10:05:44Z</time>
      </trkpt>
      <trkpt lat="42.99014" lon="-0.07922">
        <ele>427.44</ele>
        <time>2013-12-14T10:05:57Z</time>
      </trkpt>
      <trkpt lat="42.99012" lon="-0.07921">
        <ele>426.96</ele>
        <time>2013-12-14T10:05:58Z</time>
      </trkpt>
      <trkpt lat="42.99011" lon="-0.07921">
        <ele>426.48</ele>
        <time>2013-12-14T10:06:09Z</time>
      </trkpt>
      <trkpt lat="42.9901" lon="-0.07922">
        <ele>426.48</ele>
        <time>2013-12-14T10:06:32Z</time>
      </trkpt>
      <trkpt lat="42.9901" lon="-0.07921">
        <ele>426.48</ele>
        <time>2013-12-14T10:06:59Z</time>
      </trkpt>
      <trkpt lat="42.9901" lon="-0.07921">
        <ele>426.96</ele>
        <time>2013-12-14T10:07:23Z</time>
      </trkpt>
      <trkpt lat="42.9901" lon="-0.07921">
        <ele>426.96</ele>
        <time>2013-12-14T10:07:54Z</time>
      </trkpt>
      <trkpt lat="42.9901" lon="-0.07921">
        <ele>428.4</ele>
        <time>2013-12-14T10:08:22Z</time>
      </trkpt>
      <trkpt lat="42.9901" lon="-0.0792">
        <ele>428.4</ele>
        <time>2013-12-14T10:08:43Z</time>
      </trkpt>
      <trkpt lat="42.99011" lon="-0.07921">
        <ele>427.92</ele>
        <time>2013-12-14T10:09:03Z</time>
      </trkpt>
      <trkpt lat="42.9901" lon="-0.07922">
        <ele>427.92</ele>
        <time>2013-12-14T10:09:23Z</time>
      </trkpt>
      <trkpt lat="42.9901" lon="-0.07922">
        <ele>427.92</ele>
        <time>2013-12-14T10:09:49Z</time>
      </trkpt>
      <trkpt lat="42.99011" lon="-0.07923">
        <ele>427.92</ele>
        <time>2013-12-14T10:10:10Z</time>
      </trkpt>
      <trkpt lat="42.99012" lon="-0.07923">
        <ele>427.92</ele>
        <time>2013-12-14T10:10:30Z</time>
      </trkpt>
      <trkpt lat="42.99011" lon="-0.07922">
        <ele>427.92</ele>
        <time>2013-12-14T10:11:02Z</time>
      </trkpt>
      <trkpt lat="42.99012" lon="-0.07923">
        <ele>428.4</ele>
        <time>2013-12-14T10:11:27Z</time>
      </trkpt>
      <trkpt lat="42.99011" lon="-0.07922">
        <ele>427.92</ele>
        <time>2013-12-14T10:11:56Z</time>
      </trkpt>
      <trkpt lat="42.99011" lon="-0.07922">
        <ele>428.4</ele>
        <time>2013-12-14T10:12:21Z</time>
      </trkpt>
      <trkpt lat="42.98997" lon="-0.07914">
        <ele>427.92</ele>
        <time>2013-12-14T10:12:31Z</time>
      </trkpt>
      <trkpt lat="42.98973" lon="-0.0789">
        <ele>427.92</ele>
        <time>2013-12-14T10:12:42Z</time>
      </trkpt>
      <trkpt lat="42.98945" lon="-0.07875">
        <ele>428.89</ele>
        <time>2013-12-14T10:12:54Z</time>
      </trkpt>
      <trkpt lat="42.98915" lon="-0.0785">
        <ele>428.89</ele>
        <time>2013-12-14T10:13:07Z</time>
      </trkpt>
      <trkpt lat="42.98884" lon="-0.07821">
        <ele>428.89</ele>
        <time>2013-12-14T10:13:22Z</time>
      </trkpt>
      <trkpt lat="42.9885" lon="-0.07796">
        <ele>429.37</ele>
        <time>2013-12-14T10:13:37Z</time>
      </trkpt>
      <trkpt lat="42.98821" lon="-0.07764">
        <ele>429.85</ele>
        <time>2013-12-14T10:13:51Z</time>
      </trkpt>
      <trkpt lat="42.98787" lon="-0.07722">
        <ele>430.33</ele>
        <time>2013-12-14T10:14:08Z</time>
      </trkpt>
      <trkpt lat="42.9876" lon="-0.07685">
        <ele>430.33</ele>
        <time>2013-12-14T10:14:22Z</time>
      </trkpt>
      <trkpt lat="42.9872" lon="-0.07654">
        <ele>430.81</ele>
        <time>2013-12-14T10:14:38Z</time>
      </trkpt>
      <trkpt lat="42.98696" lon="-0.07623">
        <ele>430.81</ele>
        <time>2013-12-14T10:14:50Z</time>
      </trkpt>
      <trkpt lat="42.98681" lon="-0.07611">
        <ele>430.33</ele>
        <time>2013-12-14T10:14:56Z</time>
      </trkpt>
      <trkpt lat="42.98639" lon="-0.07605">
        <ele>431.29</ele>
        <time>2013-12-14T10:15:11Z</time>
      </trkpt>
      <trkpt lat="42.98603" lon="-0.07582">
        <ele>431.29</ele>
        <time>2013-12-14T10:15:26Z</time>
      </trkpt>
      <trkpt lat="42.98565" lon="-0.07545">
        <ele>431.77</ele>
        <time>2013-12-14T10:15:42Z</time>
      </trkpt>
      <trkpt lat="42.98542" lon="-0.07522">
        <ele>432.73</ele>
        <time>2013-12-14T10:15:53Z</time>
      </trkpt>
      <trkpt lat="42.98529" lon="-0.07523">
        <ele>433.21</ele>
        <time>2013-12-14T10:15:58Z</time>
      </trkpt>
      <trkpt lat="42.98494" lon="-0.07556">
        <ele>433.21</ele>
        <time>2013-12-14T10:16:14Z</time>
      </trkpt>
      <trkpt lat="42.98457" lon="-0.07584">
        <ele>433.21</ele>
        <time>2013-12-14T10:16:28Z</time>
      </trkpt>
      <trkpt lat="42.98424" lon="-0.07575">
        <ele>433.21</ele>
        <time>2013-12-14T10:16:39Z</time>
      </trkpt>
      <trkpt lat="42.98397" lon="-0.07542">
        <ele>433.21</ele>
        <time>2013-12-14T10:16:51Z</time>
      </trkpt>
      <trkpt lat="42.98377" lon="-0.07517">
        <ele>433.69</ele>
        <time>2013-12-14T10:16:59Z</time>
      </trkpt>
      <trkpt lat="42.98327" lon="-0.07486">
        <ele>433.69</ele>
        <time>2013-12-14T10:17:15Z</time>
      </trkpt>
      <trkpt lat="42.98284" lon="-0.07472">
        <ele>434.17</ele>
        <time>2013-12-14T10:17:28Z</time>
      </trkpt>
      <trkpt lat="42.98254" lon="-0.07437">
        <ele>434.17</ele>
        <time>2013-12-14T10:17:40Z</time>
      </trkpt>
      <trkpt lat="42.98233" lon="-0.07404">
        <ele>435.61</ele>
        <time>2013-12-14T10:17:51Z</time>
      </trkpt>
      <trkpt lat="42.98222" lon="-0.0739">
        <ele>436.1</ele>
        <time>2013-12-14T10:17:56Z</time>
      </trkpt>
      <trkpt lat="42.98191" lon="-0.07345">
        <ele>435.61</ele>
        <time>2013-12-14T10:18:11Z</time>
      </trkpt>
      <trkpt lat="42.98152" lon="-0.07311">
        <ele>436.1</ele>
        <time>2013-12-14T10:18:26Z</time>
      </trkpt>
      <trkpt lat="42.98146" lon="-0.07309">
        <ele>436.58</ele>
        <time>2013-12-14T10:18:28Z</time>
      </trkpt>
      <trkpt lat="42.98132" lon="-0.0732">
        <ele>437.06</ele>
        <time>2013-12-14T10:18:33Z</time>
      </trkpt>
      <trkpt lat="42.98094" lon="-0.07346">
        <ele>437.06</ele>
        <time>2013-12-14T10:18:46Z</time>
      </trkpt>
      <trkpt lat="42.98064" lon="-0.07353">
        <ele>437.06</ele>
        <time>2013-12-14T10:18:58Z</time>
      </trkpt>
      <trkpt lat="42.9806" lon="-0.07351">
        <ele>437.06</ele>
        <time>2013-12-14T10:19:07Z</time>
      </trkpt>
      <trkpt lat="42.9806" lon="-0.0735">
        <ele>437.54</ele>
        <time>2013-12-14T10:19:24Z</time>
      </trkpt>
      <trkpt lat="42.9806" lon="-0.07349">
        <ele>438.02</ele>
        <time>2013-12-14T10:19:48Z</time>
      </trkpt>
      <trkpt lat="42.9806" lon="-0.0735">
        <ele>438.02</ele>
        <time>2013-12-14T10:20:06Z</time>
      </trkpt>
      <trkpt lat="42.9806" lon="-0.0735">
        <ele>438.02</ele>
        <time>2013-12-14T10:20:38Z</time>
      </trkpt>
      <trkpt lat="42.9806" lon="-0.0735">
        <ele>438.02</ele>
        <time>2013-12-14T10:21:01Z</time>
      </trkpt>
      <trkpt lat="42.9806" lon="-0.0735">
        <ele>438.02</ele>
        <time>2013-12-14T10:21:03Z</time>
      </trkpt>
      <trkpt lat="42.98054" lon="-0.0735">
        <ele>438.02</ele>
        <time>2013-12-14T10:21:09Z</time>
      </trkpt>
      <trkpt lat="42.98046" lon="-0.07351">
        <ele>438.02</ele>
        <time>2013-12-14T10:21:13Z</time>
      </trkpt>
      <trkpt lat="42.98001" lon="-0.0735">
        <ele>438.02</ele>
        <time>2013-12-14T10:21:27Z</time>
      </trkpt>
      <trkpt lat="42.97956" lon="-0.07348">
        <ele>438.98</ele>
        <time>2013-12-14T10:21:43Z</time>
      </trkpt>
      <trkpt lat="42.97914" lon="-0.07339">
        <ele>438.98</ele>
        <time>2013-12-14T10:21:57Z</time>
      </trkpt>
      <trkpt lat="42.97867" lon="-0.07332">
        <ele>439.46</ele>
        <time>2013-12-14T10:22:12Z</time>
      </trkpt>
      <trkpt lat="42.97842" lon="-0.07353">
        <ele>439.94</ele>
        <time>2013-12-14T10:22:23Z</time>
      </trkpt>
      <trkpt lat="42.97805" lon="-0.07374">
        <ele>440.42</ele>
        <time>2013-12-14T10:22:36Z</time>
      </trkpt>
      <trkpt lat="42.97765" lon="-0.07399">
        <ele>441.38</ele>
        <time>2013-12-14T10:22:50Z</time>
      </trkpt>
      <trkpt lat="42.97727" lon="-0.07427">
        <ele>442.34</ele>
        <time>2013-12-14T10:23:03Z</time>
      </trkpt>
      <trkpt lat="42.9771" lon="-0.07448">
        <ele>441.38</ele>
        <time>2013-12-14T10:23:10Z</time>
      </trkpt>
      <trkpt lat="42.97677" lon="-0.07505">
        <ele>441.38</ele>
        <time>2013-12-14T10:23:24Z</time>
      </trkpt>
      <trkpt lat="42.97643" lon="-0.07549">
        <ele>442.34</ele>
        <time>2013-12-14T10:23:37Z</time>
      </trkpt>
      <trkpt lat="42.97634" lon="-0.07567">
        <ele>442.34</ele>
        <time>2013-12-14T10:23:41Z</time>
      </trkpt>
      <trkpt lat="42.97599" lon="-0.07586">
        <ele>442.34</ele>
        <time>2013-12-14T10:23:52Z</time>
      </trkpt>
      <trkpt lat="42.97576" lon="-0.07591">
        <ele>443.31</ele>
        <time>2013-12-14T10:23:59Z</time>
      </trkpt>
      <trkpt lat="42.97526" lon="-0.07577">
        <ele>443.31</ele>
        <time>2013-12-14T10:24:12Z</time>
      </trkpt>
      <trkpt lat="42.97475" lon="-0.07561">
        <ele>444.27</ele>
        <time>2013-12-14T10:24:26Z</time>
      </trkpt>
      <trkpt lat="42.97417" lon="-0.07545">
        <ele>445.23</ele>
        <time>2013-12-14T10:24:42Z</time>
      </trkpt>
      <trkpt lat="42.97373" lon="-0.07533">
        <ele>445.71</ele>
        <time>2013-12-14T10:24:54Z</time>
      </trkpt>
      <trkpt lat="42.97319" lon="-0.07518">
        <ele>447.15</ele>
        <time>2013-12-14T10:25:11Z</time>
      </trkpt>
      <trkpt lat="42.97261" lon="-0.07502">
        <ele>448.11</ele>
        <time>2013-12-14T10:25:29Z</time>
      </trkpt>
      <trkpt lat="42.97207" lon="-0.07488">
        <ele>449.07</ele>
        <time>2013-12-14T10:25:47Z</time>
      </trkpt>
      <trkpt lat="42.9717" lon="-0.07476">
        <ele>449.55</ele>
        <time>2013-12-14T10:25:58Z</time>
      </trkpt>
      <trkpt lat="42.97121" lon="-0.07463">
        <ele>450.03</ele>
        <time>2013-12-14T10:26:13Z</time>
      </trkpt>
      <trkpt lat="42.97089" lon="-0.07454">
        <ele>451.48</ele>
        <time>2013-12-14T10:26:24Z</time>
      </trkpt>
      <trkpt lat="42.97054" lon="-0.07445">
        <ele>451.96</ele>
        <time>2013-12-14T10:26:36Z</time>
      </trkpt>
      <trkpt lat="42.97022" lon="-0.07436">
        <ele>452.92</ele>
        <time>2013-12-14T10:26:48Z</time>
      </trkpt>
      <trkpt lat="42.96988" lon="-0.07427">
        <ele>453.4</ele>
        <time>2013-12-14T10:27:02Z</time>
      </trkpt>
      <trkpt lat="42.96948" lon="-0.07414">
        <ele>454.36</ele>
        <time>2013-12-14T10:27:16Z</time>
      </trkpt>
      <trkpt lat="42.96913" lon="-0.07406">
        <ele>454.84</ele>
        <time>2013-12-14T10:27:26Z</time>
      </trkpt>
      <trkpt lat="42.96867" lon="-0.07393">
        <ele>455.8</ele>
        <time>2013-12-14T10:27:39Z</time>
      </trkpt>
      <trkpt lat="42.96827" lon="-0.07383">
        <ele>456.76</ele>
        <time>2013-12-14T10:27:51Z</time>
      </trkpt>
      <trkpt lat="42.96824" lon="-0.07382">
        <ele>456.28</ele>
        <time>2013-12-14T10:27:52Z</time>
      </trkpt>
      <trkpt lat="42.96784" lon="-0.07372">
        <ele>457.24</ele>
        <time>2013-12-14T10:28:06Z</time>
      </trkpt>
      <trkpt lat="42.96749" lon="-0.0736">
        <ele>457.72</ele>
        <time>2013-12-14T10:28:18Z</time>
      </trkpt>
      <trkpt lat="42.96718" lon="-0.07352">
        <ele>458.69</ele>
        <time>2013-12-14T10:28:28Z</time>
      </trkpt>
      <trkpt lat="42.96683" lon="-0.07341">
        <ele>458.69</ele>
        <time>2013-12-14T10:28:38Z</time>
      </trkpt>
      <trkpt lat="42.96644" lon="-0.07324">
        <ele>460.13</ele>
        <time>2013-12-14T10:28:49Z</time>
      </trkpt>
      <trkpt lat="42.96609" lon="-0.07302">
        <ele>460.61</ele>
        <time>2013-12-14T10:29:00Z</time>
      </trkpt>
      <trkpt lat="42.96586" lon="-0.07282">
        <ele>461.09</ele>
        <time>2013-12-14T10:29:09Z</time>
      </trkpt>
      <trkpt lat="42.96577" lon="-0.07272">
        <ele>462.05</ele>
        <time>2013-12-14T10:29:20Z</time>
      </trkpt>
      <trkpt lat="42.96553" lon="-0.07253">
        <ele>462.05</ele>
        <time>2013-12-14T10:29:35Z</time>
      </trkpt>
      <trkpt lat="42.96552" lon="-0.07252">
        <ele>462.05</ele>
        <time>2013-12-14T10:29:36Z</time>
      </trkpt>
      <trkpt lat="42.96525" lon="-0.07215">
        <ele>462.53</ele>
        <time>2013-12-14T10:29:52Z</time>
      </trkpt>
      <trkpt lat="42.96504" lon="-0.07182">
        <ele>463.49</ele>
        <time>2013-12-14T10:30:05Z</time>
      </trkpt>
      <trkpt lat="42.96486" lon="-0.07155">
        <ele>463.49</ele>
        <time>2013-12-14T10:30:16Z</time>
      </trkpt>
      <trkpt lat="42.96478" lon="-0.07141">
        <ele>463.97</ele>
        <time>2013-12-14T10:30:22Z</time>
      </trkpt>
      <trkpt lat="42.96464" lon="-0.07141">
        <ele>463.97</ele>
        <time>2013-12-14T10:30:32Z</time>
      </trkpt>
      <trkpt lat="42.96446" lon="-0.0715">
        <ele>464.45</ele>
        <time>2013-12-14T10:30:41Z</time>
      </trkpt>
      <trkpt lat="42.96415" lon="-0.07165">
        <ele>464.45</ele>
        <time>2013-12-14T10:30:53Z</time>
      </trkpt>
      <trkpt lat="42.96374" lon="-0.07195">
        <ele>465.9</ele>
        <time>2013-12-14T10:31:10Z</time>
      </trkpt>
      <trkpt lat="42.96344" lon="-0.0723">
        <ele>467.34</ele>
        <time>2013-12-14T10:31:24Z</time>
      </trkpt>
      <trkpt lat="42.96311" lon="-0.07244">
        <ele>468.78</ele>
        <time>2013-12-14T10:31:36Z</time>
      </trkpt>
      <trkpt lat="42.96266" lon="-0.07273">
        <ele>470.22</ele>
        <time>2013-12-14T10:31:53Z</time>
      </trkpt>
      <trkpt lat="42.96251" lon="-0.07286">
        <ele>470.7</ele>
        <time>2013-12-14T10:31:59Z</time>
      </trkpt>
      <trkpt lat="42.96248" lon="-0.07291">
        <ele>470.7</ele>
        <time>2013-12-14T10:32:01Z</time>
      </trkpt>
      <trkpt lat="42.96219" lon="-0.07318">
        <ele>472.14</ele>
        <time>2013-12-14T10:32:14Z</time>
      </trkpt>
      <trkpt lat="42.96189" lon="-0.07348">
        <ele>473.59</ele>
        <time>2013-12-14T10:32:27Z</time>
      </trkpt>
      <trkpt lat="42.96163" lon="-0.07372">
        <ele>475.51</ele>
        <time>2013-12-14T10:32:39Z</time>
      </trkpt>
      <trkpt lat="42.96126" lon="-0.07377">
        <ele>476.95</ele>
        <time>2013-12-14T10:32:53Z</time>
      </trkpt>
      <trkpt lat="42.961" lon="-0.07383">
        <ele>477.91</ele>
        <time>2013-12-14T10:33:03Z</time>
      </trkpt>
      <trkpt lat="42.96098" lon="-0.07399">
        <ele>478.39</ele>
        <time>2013-12-14T10:33:08Z</time>
      </trkpt>
      <trkpt lat="42.96084" lon="-0.07407">
        <ele>478.87</ele>
        <time>2013-12-14T10:33:14Z</time>
      </trkpt>
      <trkpt lat="42.96069" lon="-0.07412">
        <ele>478.87</ele>
        <time>2013-12-14T10:33:20Z</time>
      </trkpt>
      <trkpt lat="42.96066" lon="-0.0742">
        <ele>479.84</ele>
        <time>2013-12-14T10:33:24Z</time>
      </trkpt>
      <trkpt lat="42.96065" lon="-0.07444">
        <ele>479.84</ele>
        <time>2013-12-14T10:33:34Z</time>
      </trkpt>
      <trkpt lat="42.96035" lon="-0.0745">
        <ele>481.28</ele>
        <time>2013-12-14T10:33:46Z</time>
      </trkpt>
      <trkpt lat="42.96007" lon="-0.07463">
        <ele>482.72</ele>
        <time>2013-12-14T10:33:58Z</time>
      </trkpt>
      <trkpt lat="42.96011" lon="-0.07505">
        <ele>483.2</ele>
        <time>2013-12-14T10:34:10Z</time>
      </trkpt>
      <trkpt lat="42.96017" lon="-0.07549">
        <ele>483.2</ele>
        <time>2013-12-14T10:34:20Z</time>
      </trkpt>
      <trkpt lat="42.96018" lon="-0.07555">
        <ele>483.2</ele>
        <time>2013-12-14T10:34:22Z</time>
      </trkpt>
      <trkpt lat="42.96018" lon="-0.0756">
        <ele>483.2</ele>
        <time>2013-12-14T10:34:24Z</time>
      </trkpt>
      <trkpt lat="42.96019" lon="-0.07565">
        <ele>483.2</ele>
        <time>2013-12-14T10:34:39Z</time>
      </trkpt>
      <trkpt lat="42.96018" lon="-0.07565">
        <ele>482.72</ele>
        <time>2013-12-14T10:35:06Z</time>
      </trkpt>
      <trkpt lat="42.96017" lon="-0.07565">
        <ele>482.72</ele>
        <time>2013-12-14T10:35:32Z</time>
      </trkpt>
      <trkpt lat="42.96016" lon="-0.07566">
        <ele>483.2</ele>
        <time>2013-12-14T10:35:58Z</time>
      </trkpt>
      <trkpt lat="42.96017" lon="-0.07568">
        <ele>482.72</ele>
        <time>2013-12-14T10:36:04Z</time>
      </trkpt>
      <trkpt lat="42.96024" lon="-0.07593">
        <ele>482.72</ele>
        <time>2013-12-14T10:36:13Z</time>
      </trkpt>
      <trkpt lat="42.96027" lon="-0.07607">
        <ele>483.68</ele>
        <time>2013-12-14T10:36:18Z</time>
      </trkpt>
      <trkpt lat="42.96029" lon="-0.07621">
        <ele>484.16</ele>
        <time>2013-12-14T10:36:23Z</time>
      </trkpt>
      <trkpt lat="42.96033" lon="-0.07647">
        <ele>485.6</ele>
        <time>2013-12-14T10:36:32Z</time>
      </trkpt>
      <trkpt lat="42.96043" lon="-0.07687">
        <ele>487.05</ele>
        <time>2013-12-14T10:36:47Z</time>
      </trkpt>
      <trkpt lat="42.96043" lon="-0.07693">
        <ele>488.49</ele>
        <time>2013-12-14T10:36:50Z</time>
      </trkpt>
      <trkpt lat="42.96025" lon="-0.07704">
        <ele>489.45</ele>
        <time>2013-12-14T10:37:00Z</time>
      </trkpt>
      <trkpt lat="42.95996" lon="-0.07712">
        <ele>488.97</ele>
        <time>2013-12-14T10:37:12Z</time>
      </trkpt>
      <trkpt lat="42.95965" lon="-0.07705">
        <ele>489.93</ele>
        <time>2013-12-14T10:37:24Z</time>
      </trkpt>
      <trkpt lat="42.95955" lon="-0.07704">
        <ele>490.41</ele>
        <time>2013-12-14T10:37:29Z</time>
      </trkpt>
      <trkpt lat="42.95956" lon="-0.07713">
        <ele>491.85</ele>
        <time>2013-12-14T10:37:34Z</time>
      </trkpt>
      <trkpt lat="42.95973" lon="-0.07718">
        <ele>493.29</ele>
        <time>2013-12-14T10:37:44Z</time>
      </trkpt>
      <trkpt lat="42.95979" lon="-0.07722">
        <ele>493.77</ele>
        <time>2013-12-14T10:37:48Z</time>
      </trkpt>
      <trkpt lat="42.96007" lon="-0.07733">
        <ele>496.66</ele>
        <time>2013-12-14T10:38:03Z</time>
      </trkpt>
      <trkpt lat="42.96039" lon="-0.07749">
        <ele>499.54</ele>
        <time>2013-12-14T10:38:20Z</time>
      </trkpt>
      <trkpt lat="42.96067" lon="-0.0777">
        <ele>502.91</ele>
        <time>2013-12-14T10:38:35Z</time>
      </trkpt>
      <trkpt lat="42.96075" lon="-0.07778">
        <ele>503.87</ele>
        <time>2013-12-14T10:38:40Z</time>
      </trkpt>
      <trkpt lat="42.96108" lon="-0.07796">
        <ele>506.27</ele>
        <time>2013-12-14T10:38:55Z</time>
      </trkpt>
      <trkpt lat="42.96141" lon="-0.07805">
        <ele>509.16</ele>
        <time>2013-12-14T10:39:08Z</time>
      </trkpt>
      <trkpt lat="42.96169" lon="-0.07812">
        <ele>512.04</ele>
        <time>2013-12-14T10:39:20Z</time>
      </trkpt>
      <trkpt lat="42.96201" lon="-0.07816">
        <ele>514.44</ele>
        <time>2013-12-14T10:39:35Z</time>
      </trkpt>
      <trkpt lat="42.96233" lon="-0.07815">
        <ele>515.4</ele>
        <time>2013-12-14T10:39:51Z</time>
      </trkpt>
      <trkpt lat="42.96261" lon="-0.07812">
        <ele>517.81</ele>
        <time>2013-12-14T10:40:05Z</time>
      </trkpt>
      <trkpt lat="42.96295" lon="-0.07825">
        <ele>520.69</ele>
        <time>2013-12-14T10:40:24Z</time>
      </trkpt>
      <trkpt lat="42.96303" lon="-0.07836">
        <ele>521.17</ele>
        <time>2013-12-14T10:40:30Z</time>
      </trkpt>
      <trkpt lat="42.96306" lon="-0.07844">
        <ele>522.13</ele>
        <time>2013-12-14T10:40:34Z</time>
      </trkpt>
      <trkpt lat="42.96309" lon="-0.07857">
        <ele>523.09</ele>
        <time>2013-12-14T10:40:40Z</time>
      </trkpt>
      <trkpt lat="42.96311" lon="-0.07866">
        <ele>523.58</ele>
        <time>2013-12-14T10:40:44Z</time>
      </trkpt>
      <trkpt lat="42.96311" lon="-0.07891">
        <ele>525.5</ele>
        <time>2013-12-14T10:40:56Z</time>
      </trkpt>
      <trkpt lat="42.96308" lon="-0.07895">
        <ele>525.98</ele>
        <time>2013-12-14T10:41:01Z</time>
      </trkpt>
      <trkpt lat="42.96306" lon="-0.07898">
        <ele>525.98</ele>
        <time>2013-12-14T10:41:03Z</time>
      </trkpt>
      <trkpt lat="42.96308" lon="-0.07896">
        <ele>525.98</ele>
        <time>2013-12-14T10:41:18Z</time>
      </trkpt>
      <trkpt lat="42.96308" lon="-0.07896">
        <ele>526.46</ele>
        <time>2013-12-14T10:41:48Z</time>
      </trkpt>
      <trkpt lat="42.96308" lon="-0.07894">
        <ele>525.5</ele>
        <time>2013-12-14T10:42:13Z</time>
      </trkpt>
      <trkpt lat="42.96308" lon="-0.07894">
        <ele>526.94</ele>
        <time>2013-12-14T10:42:32Z</time>
      </trkpt>
      <trkpt lat="42.9631" lon="-0.07894">
        <ele>526.46</ele>
        <time>2013-12-14T10:43:00Z</time>
      </trkpt>
      <trkpt lat="42.9631" lon="-0.07894">
        <ele>526.94</ele>
        <time>2013-12-14T10:43:28Z</time>
      </trkpt>
      <trkpt lat="42.9631" lon="-0.07895">
        <ele>525.98</ele>
        <time>2013-12-14T10:43:59Z</time>
      </trkpt>
      <trkpt lat="42.96309" lon="-0.07894">
        <ele>525.98</ele>
        <time>2013-12-14T10:44:22Z</time>
      </trkpt>
      <trkpt lat="42.96309" lon="-0.07895">
        <ele>526.46</ele>
        <time>2013-12-14T10:44:48Z</time>
      </trkpt>
      <trkpt lat="42.96309" lon="-0.07896">
        <ele>525.98</ele>
        <time>2013-12-14T10:45:19Z</time>
      </trkpt>
      <trkpt lat="42.96313" lon="-0.07897">
        <ele>527.42</ele>
        <time>2013-12-14T10:45:29Z</time>
      </trkpt>
      <trkpt lat="42.96315" lon="-0.07899">
        <ele>527.42</ele>
        <time>2013-12-14T10:45:32Z</time>
      </trkpt>
      <trkpt lat="42.9632" lon="-0.07904">
        <ele>528.38</ele>
        <time>2013-12-14T10:45:39Z</time>
      </trkpt>
      <trkpt lat="42.96326" lon="-0.0791">
        <ele>529.82</ele>
        <time>2013-12-14T10:45:44Z</time>
      </trkpt>
      <trkpt lat="42.96335" lon="-0.07911">
        <ele>531.75</ele>
        <time>2013-12-14T10:45:50Z</time>
      </trkpt>
      <trkpt lat="42.96358" lon="-0.07913">
        <ele>534.63</ele>
        <time>2013-12-14T10:46:04Z</time>
      </trkpt>
      <trkpt lat="42.96368" lon="-0.07915">
        <ele>535.59</ele>
        <time>2013-12-14T10:46:10Z</time>
      </trkpt>
      <trkpt lat="42.96375" lon="-0.07913">
        <ele>536.07</ele>
        <time>2013-12-14T10:46:14Z</time>
      </trkpt>
      <trkpt lat="42.96397" lon="-0.07898">
        <ele>538.96</ele>
        <time>2013-12-14T10:46:27Z</time>
      </trkpt>
      <trkpt lat="42.96424" lon="-0.07886">
        <ele>539.44</ele>
        <time>2013-12-14T10:46:41Z</time>
      </trkpt>
      <trkpt lat="42.96436" lon="-0.0788">
        <ele>542.32</ele>
        <time>2013-12-14T10:46:53Z</time>
      </trkpt>
      <trkpt lat="42.96438" lon="-0.07878">
        <ele>541.84</ele>
        <time>2013-12-14T10:47:10Z</time>
      </trkpt>
      <trkpt lat="42.96447" lon="-0.07879">
        <ele>542.32</ele>
        <time>2013-12-14T10:47:21Z</time>
      </trkpt>
      <trkpt lat="42.96457" lon="-0.07877">
        <ele>543.28</ele>
        <time>2013-12-14T10:47:34Z</time>
      </trkpt>
      <trkpt lat="42.96458" lon="-0.07874">
        <ele>543.28</ele>
        <time>2013-12-14T10:47:54Z</time>
      </trkpt>
      <trkpt lat="42.96459" lon="-0.07873">
        <ele>543.28</ele>
        <time>2013-12-14T10:48:04Z</time>
      </trkpt>
      <trkpt lat="42.96472" lon="-0.07873">
        <ele>544.24</ele>
        <time>2013-12-14T10:48:15Z</time>
      </trkpt>
      <trkpt lat="42.96493" lon="-0.07864">
        <ele>545.69</ele>
        <time>2013-12-14T10:48:28Z</time>
      </trkpt>
      <trkpt lat="42.96509" lon="-0.07867">
        <ele>549.05</ele>
        <time>2013-12-14T10:48:38Z</time>
      </trkpt>
      <trkpt lat="42.96512" lon="-0.07867">
        <ele>549.53</ele>
        <time>2013-12-14T10:48:40Z</time>
      </trkpt>
      <trkpt lat="42.9653" lon="-0.07868">
        <ele>551.93</ele>
        <time>2013-12-14T10:48:51Z</time>
      </trkpt>
      <trkpt lat="42.9654" lon="-0.07872">
        <ele>552.9</ele>
        <time>2013-12-14T10:48:57Z</time>
      </trkpt>
      <trkpt lat="42.96563" lon="-0.0787">
        <ele>554.82</ele>
        <time>2013-12-14T10:49:11Z</time>
      </trkpt>
      <trkpt lat="42.96582" lon="-0.0787">
        <ele>555.3</ele>
        <time>2013-12-14T10:49:20Z</time>
      </trkpt>
      <trkpt lat="42.96587" lon="-0.0787">
        <ele>556.26</ele>
        <time>2013-12-14T10:49:22Z</time>
      </trkpt>
      <trkpt lat="42.9659" lon="-0.07871">
        <ele>556.74</ele>
        <time>2013-12-14T10:49:24Z</time>
      </trkpt>
      <trkpt lat="42.966" lon="-0.07874">
        <ele>557.7</ele>
        <time>2013-12-14T10:49:29Z</time>
      </trkpt>
      <trkpt lat="42.96609" lon="-0.07873">
        <ele>557.22</ele>
        <time>2013-12-14T10:49:34Z</time>
      </trkpt>
      <trkpt lat="42.96633" lon="-0.07873">
        <ele>559.14</ele>
        <time>2013-12-14T10:49:45Z</time>
      </trkpt>
      <trkpt lat="42.96653" lon="-0.07873">
        <ele>560.59</ele>
        <time>2013-12-14T10:49:56Z</time>
      </trkpt>
      <trkpt lat="42.96667" lon="-0.07882">
        <ele>563.95</ele>
        <time>2013-12-14T10:50:07Z</time>
      </trkpt>
      <trkpt lat="42.96678" lon="-0.07887">
        <ele>566.83</ele>
        <time>2013-12-14T10:50:19Z</time>
      </trkpt>
      <trkpt lat="42.96682" lon="-0.07888">
        <ele>567.32</ele>
        <time>2013-12-14T10:50:22Z</time>
      </trkpt>
      <trkpt lat="42.96709" lon="-0.07879">
        <ele>569.72</ele>
        <time>2013-12-14T10:50:39Z</time>
      </trkpt>
      <trkpt lat="42.96724" lon="-0.07874">
        <ele>571.64</ele>
        <time>2013-12-14T10:50:49Z</time>
      </trkpt>
      <trkpt lat="42.96734" lon="-0.07874">
        <ele>573.56</ele>
        <time>2013-12-14T10:50:56Z</time>
      </trkpt>
      <trkpt lat="42.9675" lon="-0.07873">
        <ele>576.93</ele>
        <time>2013-12-14T10:51:09Z</time>
      </trkpt>
      <trkpt lat="42.96756" lon="-0.07876">
        <ele>578.37</ele>
        <time>2013-12-14T10:51:15Z</time>
      </trkpt>
      <trkpt lat="42.96763" lon="-0.07865">
        <ele>580.29</ele>
        <time>2013-12-14T10:51:24Z</time>
      </trkpt>
      <trkpt lat="42.96768" lon="-0.07868">
        <ele>580.77</ele>
        <time>2013-12-14T10:51:29Z</time>
      </trkpt>
      <trkpt lat="42.96769" lon="-0.07873">
        <ele>581.25</ele>
        <time>2013-12-14T10:51:33Z</time>
      </trkpt>
      <trkpt lat="42.96772" lon="-0.07881">
        <ele>582.22</ele>
        <time>2013-12-14T10:51:39Z</time>
      </trkpt>
      <trkpt lat="42.96782" lon="-0.07892">
        <ele>584.62</ele>
        <time>2013-12-14T10:51:50Z</time>
      </trkpt>
      <trkpt lat="42.96787" lon="-0.07899">
        <ele>586.06</ele>
        <time>2013-12-14T10:51:56Z</time>
      </trkpt>
      <trkpt lat="42.96786" lon="-0.07904">
        <ele>586.06</ele>
        <time>2013-12-14T10:52:00Z</time>
      </trkpt>
      <trkpt lat="42.96788" lon="-0.07907">
        <ele>587.02</ele>
        <time>2013-12-14T10:52:04Z</time>
      </trkpt>
      <trkpt lat="42.96794" lon="-0.07902">
        <ele>587.5</ele>
        <time>2013-12-14T10:52:10Z</time>
      </trkpt>
      <trkpt lat="42.96804" lon="-0.07911">
        <ele>589.43</ele>
        <time>2013-12-14T10:52:21Z</time>
      </trkpt>
      <trkpt lat="42.96806" lon="-0.07914">
        <ele>589.91</ele>
        <time>2013-12-14T10:52:23Z</time>
      </trkpt>
      <trkpt lat="42.96813" lon="-0.07919">
        <ele>590.39</ele>
        <time>2013-12-14T10:52:29Z</time>
      </trkpt>
      <trkpt lat="42.96815" lon="-0.07914">
        <ele>590.87</ele>
        <time>2013-12-14T10:52:35Z</time>
      </trkpt>
      <trkpt lat="42.96813" lon="-0.0791">
        <ele>590.87</ele>
        <time>2013-12-14T10:52:49Z</time>
      </trkpt>
      <trkpt lat="42.96814" lon="-0.0791">
        <ele>590.87</ele>
        <time>2013-12-14T10:53:09Z</time>
      </trkpt>
      <trkpt lat="42.96812" lon="-0.0791">
        <ele>590.39</ele>
        <time>2013-12-14T10:53:26Z</time>
      </trkpt>
      <trkpt lat="42.96812" lon="-0.07909">
        <ele>589.91</ele>
        <time>2013-12-14T10:54:08Z</time>
      </trkpt>
      <trkpt lat="42.96813" lon="-0.07908">
        <ele>590.39</ele>
        <time>2013-12-14T10:54:46Z</time>
      </trkpt>
      <trkpt lat="42.96813" lon="-0.07907">
        <ele>590.39</ele>
        <time>2013-12-14T10:55:31Z</time>
      </trkpt>
      <trkpt lat="42.96813" lon="-0.07908">
        <ele>589.91</ele>
        <time>2013-12-14T10:56:14Z</time>
      </trkpt>
      <trkpt lat="42.96812" lon="-0.07907">
        <ele>589.91</ele>
        <time>2013-12-14T10:57:00Z</time>
      </trkpt>
      <trkpt lat="42.96813" lon="-0.07908">
        <ele>589.91</ele>
        <time>2013-12-14T10:57:48Z</time>
      </trkpt>
      <trkpt lat="42.96812" lon="-0.07909">
        <ele>590.39</ele>
        <time>2013-12-14T10:58:25Z</time>
      </trkpt>
      <trkpt lat="42.96812" lon="-0.07908">
        <ele>589.91</ele>
        <time>2013-12-14T10:59:07Z</time>
      </trkpt>
      <trkpt lat="42.96812" lon="-0.0791">
        <ele>590.39</ele>
        <time>2013-12-14T10:59:47Z</time>
      </trkpt>
      <trkpt lat="42.96813" lon="-0.07908">
        <ele>589.43</ele>
        <time>2013-12-14T11:00:33Z</time>
      </trkpt>
      <trkpt lat="42.96812" lon="-0.07906">
        <ele>589.43</ele>
        <time>2013-12-14T11:01:18Z</time>
      </trkpt>
      <trkpt lat="42.96811" lon="-0.07906">
        <ele>589.91</ele>
        <time>2013-12-14T11:01:55Z</time>
      </trkpt>
      <trkpt lat="42.96812" lon="-0.07907">
        <ele>589.43</ele>
        <time>2013-12-14T11:02:28Z</time>
      </trkpt>
      <trkpt lat="42.96812" lon="-0.07908">
        <ele>589.43</ele>
        <time>2013-12-14T11:03:02Z</time>
      </trkpt>
      <trkpt lat="42.96813" lon="-0.07909">
        <ele>589.91</ele>
        <time>2013-12-14T11:03:35Z</time>
      </trkpt>
      <trkpt lat="42.96814" lon="-0.07907">
        <ele>589.91</ele>
        <time>2013-12-14T11:04:12Z</time>
      </trkpt>
      <trkpt lat="42.96813" lon="-0.07907">
        <ele>589.91</ele>
        <time>2013-12-14T11:04:42Z</time>
      </trkpt>
      <trkpt lat="42.96812" lon="-0.07908">
        <ele>589.43</ele>
        <time>2013-12-14T11:05:12Z</time>
      </trkpt>
      <trkpt lat="42.96813" lon="-0.07908">
        <ele>589.91</ele>
        <time>2013-12-14T11:05:47Z</time>
      </trkpt>
      <trkpt lat="42.96812" lon="-0.07909">
        <ele>590.39</ele>
        <time>2013-12-14T11:05:52Z</time>
      </trkpt>
      <trkpt lat="42.96817" lon="-0.07908">
        <ele>590.87</ele>
        <time>2013-12-14T11:05:58Z</time>
      </trkpt>
      <trkpt lat="42.96824" lon="-0.0791">
        <ele>591.35</ele>
        <time>2013-12-14T11:06:04Z</time>
      </trkpt>
      <trkpt lat="42.96832" lon="-0.0791">
        <ele>591.83</ele>
        <time>2013-12-14T11:06:10Z</time>
      </trkpt>
      <trkpt lat="42.96834" lon="-0.07913">
        <ele>591.83</ele>
        <time>2013-12-14T11:06:14Z</time>
      </trkpt>
      <trkpt lat="42.96836" lon="-0.07912">
        <ele>591.83</ele>
        <time>2013-12-14T11:06:27Z</time>
      </trkpt>
      <trkpt lat="42.96836" lon="-0.07913">
        <ele>591.83</ele>
        <time>2013-12-14T11:06:41Z</time>
      </trkpt>
      <trkpt lat="42.96837" lon="-0.07913">
        <ele>591.83</ele>
        <time>2013-12-14T11:06:50Z</time>
      </trkpt>
      <trkpt lat="42.96834" lon="-0.07915">
        <ele>591.35</ele>
        <time>2013-12-14T11:06:59Z</time>
      </trkpt>
      <trkpt lat="42.96833" lon="-0.07916">
        <ele>591.35</ele>
        <time>2013-12-14T11:07:31Z</time>
      </trkpt>
      <trkpt lat="42.96834" lon="-0.07917">
        <ele>592.31</ele>
        <time>2013-12-14T11:07:45Z</time>
      </trkpt>
      <trkpt lat="42.96834" lon="-0.07918">
        <ele>591.83</ele>
        <time>2013-12-14T11:07:47Z</time>
      </trkpt>
      <trkpt lat="42.96836" lon="-0.07918">
        <ele>591.83</ele>
        <time>2013-12-14T11:07:50Z</time>
      </trkpt>
      <trkpt lat="42.96843" lon="-0.07926">
        <ele>592.31</ele>
        <time>2013-12-14T11:07:56Z</time>
      </trkpt>
      <trkpt lat="42.9685" lon="-0.07939">
        <ele>592.31</ele>
        <time>2013-12-14T11:08:03Z</time>
      </trkpt>
      <trkpt lat="42.96862" lon="-0.07974">
        <ele>593.75</ele>
        <time>2013-12-14T11:08:21Z</time>
      </trkpt>
      <trkpt lat="42.96875" lon="-0.08009">
        <ele>595.67</ele>
        <time>2013-12-14T11:08:37Z</time>
      </trkpt>
      <trkpt lat="42.96899" lon="-0.08045">
        <ele>595.19</ele>
        <time>2013-12-14T11:08:50Z</time>
      </trkpt>
      <trkpt lat="42.96917" lon="-0.08046">
        <ele>593.27</ele>
        <time>2013-12-14T11:08:58Z</time>
      </trkpt>
      <trkpt lat="42.96937" lon="-0.0807">
        <ele>589.91</ele>
        <time>2013-12-14T11:09:07Z</time>
      </trkpt>
      <trkpt lat="42.96945" lon="-0.08074">
        <ele>589.43</ele>
        <time>2013-12-14T11:09:10Z</time>
      </trkpt>
      <trkpt lat="42.9697" lon="-0.08099">
        <ele>586.06</ele>
        <time>2013-12-14T11:09:20Z</time>
      </trkpt>
      <trkpt lat="42.96986" lon="-0.08121">
        <ele>586.06</ele>
        <time>2013-12-14T11:09:29Z</time>
      </trkpt>
      <trkpt lat="42.96991" lon="-0.0813">
        <ele>587.02</ele>
        <time>2013-12-14T11:09:34Z</time>
      </trkpt>
      <trkpt lat="42.96999" lon="-0.08144">
        <ele>587.02</ele>
        <time>2013-12-14T11:09:41Z</time>
      </trkpt>
      <trkpt lat="42.97006" lon="-0.08157">
        <ele>585.58</ele>
        <time>2013-12-14T11:09:48Z</time>
      </trkpt>
      <trkpt lat="42.97009" lon="-0.08159">
        <ele>585.58</ele>
        <time>2013-12-14T11:09:52Z</time>
      </trkpt>
      <trkpt lat="42.97011" lon="-0.08161">
        <ele>584.62</ele>
        <time>2013-12-14T11:10:03Z</time>
      </trkpt>
      <trkpt lat="42.97011" lon="-0.08161">
        <ele>585.1</ele>
        <time>2013-12-14T11:10:23Z</time>
      </trkpt>
      <trkpt lat="42.9701" lon="-0.08161">
        <ele>585.1</ele>
        <time>2013-12-14T11:10:46Z</time>
      </trkpt>
      <trkpt lat="42.9701" lon="-0.0816">
        <ele>585.1</ele>
        <time>2013-12-14T11:11:08Z</time>
      </trkpt>
      <trkpt lat="42.97012" lon="-0.08162">
        <ele>586.06</ele>
        <time>2013-12-14T11:11:34Z</time>
      </trkpt>
      <trkpt lat="42.97017" lon="-0.0817">
        <ele>585.1</ele>
        <time>2013-12-14T11:11:43Z</time>
      </trkpt>
      <trkpt lat="42.97021" lon="-0.08176">
        <ele>584.62</ele>
        <time>2013-12-14T11:11:45Z</time>
      </trkpt>
      <trkpt lat="42.97033" lon="-0.08202">
        <ele>583.66</ele>
        <time>2013-12-14T11:11:53Z</time>
      </trkpt>
      <trkpt lat="42.9704" lon="-0.08219">
        <ele>585.58</ele>
        <time>2013-12-14T11:12:01Z</time>
      </trkpt>
      <trkpt lat="42.97043" lon="-0.08224">
        <ele>586.54</ele>
        <time>2013-12-14T11:12:04Z</time>
      </trkpt>
      <trkpt lat="42.97048" lon="-0.08231">
        <ele>587.02</ele>
        <time>2013-12-14T11:12:08Z</time>
      </trkpt>
      <trkpt lat="42.97055" lon="-0.08241">
        <ele>588.95</ele>
        <time>2013-12-14T11:12:14Z</time>
      </trkpt>
      <trkpt lat="42.97065" lon="-0.0826">
        <ele>592.31</ele>
        <time>2013-12-14T11:12:25Z</time>
      </trkpt>
      <trkpt lat="42.97066" lon="-0.08262">
        <ele>592.31</ele>
        <time>2013-12-14T11:12:26Z</time>
      </trkpt>
      <trkpt lat="42.97073" lon="-0.08281">
        <ele>595.67</ele>
        <time>2013-12-14T11:12:40Z</time>
      </trkpt>
      <trkpt lat="42.97076" lon="-0.08291">
        <ele>598.56</ele>
        <time>2013-12-14T11:12:50Z</time>
      </trkpt>
      <trkpt lat="42.97077" lon="-0.08298">
        <ele>600</ele>
        <time>2013-12-14T11:12:54Z</time>
      </trkpt>
      <trkpt lat="42.97073" lon="-0.08305">
        <ele>600.48</ele>
        <time>2013-12-14T11:12:57Z</time>
      </trkpt>
      <trkpt lat="42.9706" lon="-0.083">
        <ele>601.92</ele>
        <time>2013-12-14T11:13:10Z</time>
      </trkpt>
      <trkpt lat="42.97053" lon="-0.08275">
        <ele>600</ele>
        <time>2013-12-14T11:13:20Z</time>
      </trkpt>
      <trkpt lat="42.97041" lon="-0.08258">
        <ele>600.96</ele>
        <time>2013-12-14T11:13:30Z</time>
      </trkpt>
      <trkpt lat="42.97037" lon="-0.08253">
        <ele>601.44</ele>
        <time>2013-12-14T11:13:34Z</time>
      </trkpt>
      <trkpt lat="42.97026" lon="-0.08232">
        <ele>600.48</ele>
        <time>2013-12-14T11:13:46Z</time>
      </trkpt>
      <trkpt lat="42.97025" lon="-0.0823">
        <ele>600.96</ele>
        <time>2013-12-14T11:13:47Z</time>
      </trkpt>
      <trkpt lat="42.97017" lon="-0.08224">
        <ele>600.96</ele>
        <time>2013-12-14T11:13:52Z</time>
      </trkpt>
      <trkpt lat="42.97007" lon="-0.08225">
        <ele>604.33</ele>
        <time>2013-12-14T11:13:59Z</time>
      </trkpt>
      <trkpt lat="42.97008" lon="-0.08229">
        <ele>605.29</ele>
        <time>2013-12-14T11:14:03Z</time>
      </trkpt>
      <trkpt lat="42.97008" lon="-0.08231">
        <ele>606.25</ele>
        <time>2013-12-14T11:14:05Z</time>
      </trkpt>
      <trkpt lat="42.97012" lon="-0.08242">
        <ele>607.69</ele>
        <time>2013-12-14T11:14:14Z</time>
      </trkpt>
      <trkpt lat="42.97015" lon="-0.08245">
        <ele>608.65</ele>
        <time>2013-12-14T11:14:19Z</time>
      </trkpt>
      <trkpt lat="42.97018" lon="-0.08248">
        <ele>610.09</ele>
        <time>2013-12-14T11:14:23Z</time>
      </trkpt>
      <trkpt lat="42.97019" lon="-0.0825">
        <ele>611.06</ele>
        <time>2013-12-14T11:14:25Z</time>
      </trkpt>
      <trkpt lat="42.97022" lon="-0.08256">
        <ele>612.5</ele>
        <time>2013-12-14T11:14:30Z</time>
      </trkpt>
      <trkpt lat="42.97027" lon="-0.08266">
        <ele>614.42</ele>
        <time>2013-12-14T11:14:38Z</time>
      </trkpt>
      <trkpt lat="42.97027" lon="-0.08275">
        <ele>615.86</ele>
        <time>2013-12-14T11:14:42Z</time>
      </trkpt>
      <trkpt lat="42.97029" lon="-0.0829">
        <ele>617.3</ele>
        <time>2013-12-14T11:14:51Z</time>
      </trkpt>
      <trkpt lat="42.97032" lon="-0.08294">
        <ele>617.78</ele>
        <time>2013-12-14T11:14:55Z</time>
      </trkpt>
      <trkpt lat="42.97034" lon="-0.08308">
        <ele>619.71</ele>
        <time>2013-12-14T11:15:04Z</time>
      </trkpt>
      <trkpt lat="42.97041" lon="-0.08321">
        <ele>621.63</ele>
        <time>2013-12-14T11:15:16Z</time>
      </trkpt>
      <trkpt lat="42.97047" lon="-0.08333">
        <ele>624.51</ele>
        <time>2013-12-14T11:15:25Z</time>
      </trkpt>
      <trkpt lat="42.97049" lon="-0.08338">
        <ele>624.51</ele>
        <time>2013-12-14T11:15:28Z</time>
      </trkpt>
      <trkpt lat="42.97051" lon="-0.08346">
        <ele>626.44</ele>
        <time>2013-12-14T11:15:34Z</time>
      </trkpt>
      <trkpt lat="42.9706" lon="-0.08356">
        <ele>627.4</ele>
        <time>2013-12-14T11:15:45Z</time>
      </trkpt>
      <trkpt lat="42.97068" lon="-0.0837">
        <ele>627.4</ele>
        <time>2013-12-14T11:15:56Z</time>
      </trkpt>
      <trkpt lat="42.97069" lon="-0.0838">
        <ele>627.88</ele>
        <time>2013-12-14T11:16:09Z</time>
      </trkpt>
      <trkpt lat="42.97074" lon="-0.08386">
        <ele>627.88</ele>
        <time>2013-12-14T11:16:34Z</time>
      </trkpt>
      <trkpt lat="42.97074" lon="-0.08387">
        <ele>627.4</ele>
        <time>2013-12-14T11:16:47Z</time>
      </trkpt>
      <trkpt lat="42.9707" lon="-0.08389">
        <ele>627.4</ele>
        <time>2013-12-14T11:17:15Z</time>
      </trkpt>
      <trkpt lat="42.97069" lon="-0.08392">
        <ele>627.88</ele>
        <time>2013-12-14T11:17:50Z</time>
      </trkpt>
      <trkpt lat="42.97068" lon="-0.08391">
        <ele>627.88</ele>
        <time>2013-12-14T11:18:20Z</time>
      </trkpt>
      <trkpt lat="42.97068" lon="-0.08391">
        <ele>628.36</ele>
        <time>2013-12-14T11:18:55Z</time>
      </trkpt>
      <trkpt lat="42.97067" lon="-0.08393">
        <ele>628.36</ele>
        <time>2013-12-14T11:19:28Z</time>
      </trkpt>
      <trkpt lat="42.97069" lon="-0.08395">
        <ele>628.36</ele>
        <time>2013-12-14T11:20:01Z</time>
      </trkpt>
      <trkpt lat="42.97069" lon="-0.08396">
        <ele>628.36</ele>
        <time>2013-12-14T11:20:34Z</time>
      </trkpt>
      <trkpt lat="42.97069" lon="-0.08396">
        <ele>628.36</ele>
        <time>2013-12-14T11:21:07Z</time>
      </trkpt>
      <trkpt lat="42.97068" lon="-0.08395">
        <ele>628.84</ele>
        <time>2013-12-14T11:21:36Z</time>
      </trkpt>
      <trkpt lat="42.97068" lon="-0.08394">
        <ele>628.36</ele>
        <time>2013-12-14T11:22:16Z</time>
      </trkpt>
      <trkpt lat="42.97067" lon="-0.0839">
        <ele>628.36</ele>
        <time>2013-12-14T11:22:46Z</time>
      </trkpt>
      <trkpt lat="42.97066" lon="-0.08389">
        <ele>628.84</ele>
        <time>2013-12-14T11:23:20Z</time>
      </trkpt>
      <trkpt lat="42.97064" lon="-0.0839">
        <ele>628.36</ele>
        <time>2013-12-14T11:23:54Z</time>
      </trkpt>
      <trkpt lat="42.97065" lon="-0.0839">
        <ele>628.84</ele>
        <time>2013-12-14T11:24:25Z</time>
      </trkpt>
      <trkpt lat="42.97065" lon="-0.08389">
        <ele>628.84</ele>
        <time>2013-12-14T11:25:02Z</time>
      </trkpt>
      <trkpt lat="42.97065" lon="-0.08389">
        <ele>628.84</ele>
        <time>2013-12-14T11:25:37Z</time>
      </trkpt>
      <trkpt lat="42.97066" lon="-0.08389">
        <ele>628.84</ele>
        <time>2013-12-14T11:26:14Z</time>
      </trkpt>
      <trkpt lat="42.97067" lon="-0.08388">
        <ele>628.36</ele>
        <time>2013-12-14T11:26:53Z</time>
      </trkpt>
      <trkpt lat="42.97067" lon="-0.08388">
        <ele>628.36</ele>
        <time>2013-12-14T11:27:38Z</time>
      </trkpt>
      <trkpt lat="42.97068" lon="-0.0839">
        <ele>628.36</ele>
        <time>2013-12-14T11:28:14Z</time>
      </trkpt>
      <trkpt lat="42.97068" lon="-0.08389">
        <ele>628.84</ele>
        <time>2013-12-14T11:28:45Z</time>
      </trkpt>
      <trkpt lat="42.97068" lon="-0.08389">
        <ele>629.32</ele>
        <time>2013-12-14T11:29:16Z</time>
      </trkpt>
      <trkpt lat="42.97068" lon="-0.08388">
        <ele>629.8</ele>
        <time>2013-12-14T11:29:51Z</time>
      </trkpt>
      <trkpt lat="42.97067" lon="-0.0839">
        <ele>629.8</ele>
        <time>2013-12-14T11:30:21Z</time>
      </trkpt>
      <trkpt lat="42.97067" lon="-0.0839">
        <ele>629.8</ele>
        <time>2013-12-14T11:30:56Z</time>
      </trkpt>
      <trkpt lat="42.97067" lon="-0.08391">
        <ele>629.8</ele>
        <time>2013-12-14T11:31:20Z</time>
      </trkpt>
      <trkpt lat="42.97071" lon="-0.08397">
        <ele>631.24</ele>
        <time>2013-12-14T11:31:25Z</time>
      </trkpt>
      <trkpt lat="42.97073" lon="-0.08415">
        <ele>634.13</ele>
        <time>2013-12-14T11:31:37Z</time>
      </trkpt>
      <trkpt lat="42.97073" lon="-0.08427">
        <ele>635.57</ele>
        <time>2013-12-14T11:31:44Z</time>
      </trkpt>
      <trkpt lat="42.97072" lon="-0.08443">
        <ele>637.01</ele>
        <time>2013-12-14T11:31:55Z</time>
      </trkpt>
      <trkpt lat="42.97076" lon="-0.08456">
        <ele>637.01</ele>
        <time>2013-12-14T11:32:08Z</time>
      </trkpt>
      <trkpt lat="42.97077" lon="-0.0846">
        <ele>637.97</ele>
        <time>2013-12-14T11:32:10Z</time>
      </trkpt>
      <trkpt lat="42.9708" lon="-0.08474">
        <ele>637.49</ele>
        <time>2013-12-14T11:32:17Z</time>
      </trkpt>
      <trkpt lat="42.97084" lon="-0.08481">
        <ele>637.97</ele>
        <time>2013-12-14T11:32:22Z</time>
      </trkpt>
      <trkpt lat="42.97086" lon="-0.08495">
        <ele>637.97</ele>
        <time>2013-12-14T11:32:29Z</time>
      </trkpt>
      <trkpt lat="42.97088" lon="-0.08499">
        <ele>638.45</ele>
        <time>2013-12-14T11:32:32Z</time>
      </trkpt>
      <trkpt lat="42.97093" lon="-0.08507">
        <ele>639.89</ele>
        <time>2013-12-14T11:32:38Z</time>
      </trkpt>
      <trkpt lat="42.97096" lon="-0.08512">
        <ele>640.86</ele>
        <time>2013-12-14T11:32:41Z</time>
      </trkpt>
      <trkpt lat="42.97101" lon="-0.08525">
        <ele>641.34</ele>
        <time>2013-12-14T11:32:54Z</time>
      </trkpt>
      <trkpt lat="42.97102" lon="-0.08527">
        <ele>641.82</ele>
        <time>2013-12-14T11:33:17Z</time>
      </trkpt>
      <trkpt lat="42.97103" lon="-0.0853">
        <ele>640.86</ele>
        <time>2013-12-14T11:33:38Z</time>
      </trkpt>
      <trkpt lat="42.97111" lon="-0.08537">
        <ele>637.97</ele>
        <time>2013-12-14T11:33:42Z</time>
      </trkpt>
      <trkpt lat="42.97118" lon="-0.08538">
        <ele>637.01</ele>
        <time>2013-12-14T11:33:45Z</time>
      </trkpt>
      <trkpt lat="42.97127" lon="-0.08542">
        <ele>635.09</ele>
        <time>2013-12-14T11:33:49Z</time>
      </trkpt>
      <trkpt lat="42.97134" lon="-0.08546">
        <ele>634.13</ele>
        <time>2013-12-14T11:33:52Z</time>
      </trkpt>
      <trkpt lat="42.97149" lon="-0.08557">
        <ele>631.24</ele>
        <time>2013-12-14T11:33:58Z</time>
      </trkpt>
      <trkpt lat="42.97161" lon="-0.08566">
        <ele>629.8</ele>
        <time>2013-12-14T11:34:01Z</time>
      </trkpt>
      <trkpt lat="42.97172" lon="-0.08567">
        <ele>626.92</ele>
        <time>2013-12-14T11:34:04Z</time>
      </trkpt>
      <trkpt lat="42.97183" lon="-0.08566">
        <ele>623.55</ele>
        <time>2013-12-14T11:34:08Z</time>
      </trkpt>
      <trkpt lat="42.97188" lon="-0.08568">
        <ele>623.55</ele>
        <time>2013-12-14T11:34:09Z</time>
      </trkpt>
      <trkpt lat="42.97196" lon="-0.08567">
        <ele>620.19</ele>
        <time>2013-12-14T11:34:12Z</time>
      </trkpt>
      <trkpt lat="42.97205" lon="-0.08571">
        <ele>619.71</ele>
        <time>2013-12-14T11:34:23Z</time>
      </trkpt>
      <trkpt lat="42.97209" lon="-0.0857">
        <ele>618.26</ele>
        <time>2013-12-14T11:34:26Z</time>
      </trkpt>
      <trkpt lat="42.97215" lon="-0.08567">
        <ele>614.9</ele>
        <time>2013-12-14T11:34:31Z</time>
      </trkpt>
      <trkpt lat="42.97225" lon="-0.08562">
        <ele>612.02</ele>
        <time>2013-12-14T11:34:36Z</time>
      </trkpt>
      <trkpt lat="42.97227" lon="-0.08561">
        <ele>611.54</ele>
        <time>2013-12-14T11:34:37Z</time>
      </trkpt>
      <trkpt lat="42.97235" lon="-0.08561">
        <ele>610.09</ele>
        <time>2013-12-14T11:34:50Z</time>
      </trkpt>
      <trkpt lat="42.97235" lon="-0.08558">
        <ele>610.09</ele>
        <time>2013-12-14T11:35:22Z</time>
      </trkpt>
      <trkpt lat="42.97245" lon="-0.08561">
        <ele>606.73</ele>
        <time>2013-12-14T11:35:28Z</time>
      </trkpt>
      <trkpt lat="42.9725" lon="-0.08566">
        <ele>605.29</ele>
        <time>2013-12-14T11:35:30Z</time>
      </trkpt>
      <trkpt lat="42.97254" lon="-0.08569">
        <ele>603.85</ele>
        <time>2013-12-14T11:35:31Z</time>
      </trkpt>
      <trkpt lat="42.97257" lon="-0.08571">
        <ele>602.88</ele>
        <time>2013-12-14T11:35:32Z</time>
      </trkpt>
      <trkpt lat="42.97261" lon="-0.08573">
        <ele>601.92</ele>
        <time>2013-12-14T11:35:33Z</time>
      </trkpt>
      <trkpt lat="42.97264" lon="-0.08573">
        <ele>600.96</ele>
        <time>2013-12-14T11:35:34Z</time>
      </trkpt>
      <trkpt lat="42.97268" lon="-0.08573">
        <ele>600</ele>
        <time>2013-12-14T11:35:35Z</time>
      </trkpt>
      <trkpt lat="42.97272" lon="-0.08573">
        <ele>599.04</ele>
        <time>2013-12-14T11:35:36Z</time>
      </trkpt>
      <trkpt lat="42.97277" lon="-0.08573">
        <ele>598.56</ele>
        <time>2013-12-14T11:35:37Z</time>
      </trkpt>
      <trkpt lat="42.97281" lon="-0.08572">
        <ele>597.6</ele>
        <time>2013-12-14T11:35:38Z</time>
      </trkpt>
      <trkpt lat="42.97291" lon="-0.08571">
        <ele>595.67</ele>
        <time>2013-12-14T11:35:40Z</time>
      </trkpt>
      <trkpt lat="42.97297" lon="-0.08573">
        <ele>594.71</ele>
        <time>2013-12-14T11:35:41Z</time>
      </trkpt>
      <trkpt lat="42.97304" lon="-0.08578">
        <ele>594.23</ele>
        <time>2013-12-14T11:35:42Z</time>
      </trkpt>
      <trkpt lat="42.97311" lon="-0.0858">
        <ele>593.75</ele>
        <time>2013-12-14T11:35:43Z</time>
      </trkpt>
      <trkpt lat="42.97318" lon="-0.08582">
        <ele>592.79</ele>
        <time>2013-12-14T11:35:44Z</time>
      </trkpt>
      <trkpt lat="42.97324" lon="-0.08582">
        <ele>592.79</ele>
        <time>2013-12-14T11:35:45Z</time>
      </trkpt>
      <trkpt lat="42.9733" lon="-0.0858">
        <ele>591.83</ele>
        <time>2013-12-14T11:35:46Z</time>
      </trkpt>
      <trkpt lat="42.97337" lon="-0.0858">
        <ele>591.83</ele>
        <time>2013-12-14T11:35:47Z</time>
      </trkpt>
      <trkpt lat="42.97344" lon="-0.0858">
        <ele>590.87</ele>
        <time>2013-12-14T11:35:48Z</time>
      </trkpt>
      <trkpt lat="42.97351" lon="-0.08582">
        <ele>590.39</ele>
        <time>2013-12-14T11:35:49Z</time>
      </trkpt>
      <trkpt lat="42.97358" lon="-0.08585">
        <ele>589.91</ele>
        <time>2013-12-14T11:35:50Z</time>
      </trkpt>
      <trkpt lat="42.97365" lon="-0.08587">
        <ele>589.91</ele>
        <time>2013-12-14T11:35:51Z</time>
      </trkpt>
      <trkpt lat="42.97371" lon="-0.08589">
        <ele>589.91</ele>
        <time>2013-12-14T11:35:52Z</time>
      </trkpt>
      <trkpt lat="42.97376" lon="-0.08589">
        <ele>589.43</ele>
        <time>2013-12-14T11:35:53Z</time>
      </trkpt>
      <trkpt lat="42.97381" lon="-0.08586">
        <ele>589.91</ele>
        <time>2013-12-14T11:35:54Z</time>
      </trkpt>
      <trkpt lat="42.974" lon="-0.08557">
        <ele>589.43</ele>
        <time>2013-12-14T11:36:01Z</time>
      </trkpt>
      <trkpt lat="42.97404" lon="-0.08558">
        <ele>589.43</ele>
        <time>2013-12-14T11:36:02Z</time>
      </trkpt>
      <trkpt lat="42.97429" lon="-0.0856">
        <ele>588.46</ele>
        <time>2013-12-14T11:36:09Z</time>
      </trkpt>
      <trkpt lat="42.97456" lon="-0.08563">
        <ele>587.5</ele>
        <time>2013-12-14T11:36:16Z</time>
      </trkpt>
      <trkpt lat="42.97499" lon="-0.08572">
        <ele>584.62</ele>
        <time>2013-12-14T11:36:27Z</time>
      </trkpt>
      <trkpt lat="42.97511" lon="-0.08583">
        <ele>583.18</ele>
        <time>2013-12-14T11:36:31Z</time>
      </trkpt>
      <trkpt lat="42.9753" lon="-0.08617">
        <ele>580.77</ele>
        <time>2013-12-14T11:36:38Z</time>
      </trkpt>
      <trkpt lat="42.97533" lon="-0.08622">
        <ele>579.81</ele>
        <time>2013-12-14T11:36:39Z</time>
      </trkpt>
      <trkpt lat="42.97536" lon="-0.08627">
        <ele>580.29</ele>
        <time>2013-12-14T11:36:40Z</time>
      </trkpt>
      <trkpt lat="42.97538" lon="-0.08631">
        <ele>579.33</ele>
        <time>2013-12-14T11:36:41Z</time>
      </trkpt>
      <trkpt lat="42.97541" lon="-0.08635">
        <ele>579.33</ele>
        <time>2013-12-14T11:36:42Z</time>
      </trkpt>
      <trkpt lat="42.97544" lon="-0.0864">
        <ele>578.37</ele>
        <time>2013-12-14T11:36:43Z</time>
      </trkpt>
      <trkpt lat="42.97547" lon="-0.08645">
        <ele>578.37</ele>
        <time>2013-12-14T11:36:44Z</time>
      </trkpt>
      <trkpt lat="42.9755" lon="-0.0865">
        <ele>578.37</ele>
        <time>2013-12-14T11:36:45Z</time>
      </trkpt>
      <trkpt lat="42.97553" lon="-0.08654">
        <ele>577.89</ele>
        <time>2013-12-14T11:36:46Z</time>
      </trkpt>
      <trkpt lat="42.97556" lon="-0.08658">
        <ele>577.41</ele>
        <time>2013-12-14T11:36:47Z</time>
      </trkpt>
      <trkpt lat="42.97581" lon="-0.08683">
        <ele>574.04</ele>
        <time>2013-12-14T11:36:53Z</time>
      </trkpt>
      <trkpt lat="42.97585" lon="-0.08687">
        <ele>573.08</ele>
        <time>2013-12-14T11:36:54Z</time>
      </trkpt>
      <trkpt lat="42.97589" lon="-0.08692">
        <ele>572.12</ele>
        <time>2013-12-14T11:36:55Z</time>
      </trkpt>
      <trkpt lat="42.97592" lon="-0.08697">
        <ele>571.64</ele>
        <time>2013-12-14T11:36:56Z</time>
      </trkpt>
      <trkpt lat="42.97606" lon="-0.08711">
        <ele>568.28</ele>
        <time>2013-12-14T11:37:00Z</time>
      </trkpt>
      <trkpt lat="42.97618" lon="-0.08714">
        <ele>566.83</ele>
        <time>2013-12-14T11:37:05Z</time>
      </trkpt>
      <trkpt lat="42.9762" lon="-0.08714">
        <ele>563.95</ele>
        <time>2013-12-14T11:37:06Z</time>
      </trkpt>
      <trkpt lat="42.97626" lon="-0.08715">
        <ele>562.99</ele>
        <time>2013-12-14T11:37:08Z</time>
      </trkpt>
      <trkpt lat="42.97628" lon="-0.08717">
        <ele>563.47</ele>
        <time>2013-12-14T11:37:09Z</time>
      </trkpt>
      <trkpt lat="42.97629" lon="-0.08719">
        <ele>562.99</ele>
        <time>2013-12-14T11:37:10Z</time>
      </trkpt>
      <trkpt lat="42.97631" lon="-0.08723">
        <ele>562.99</ele>
        <time>2013-12-14T11:37:20Z</time>
      </trkpt>
      <trkpt lat="42.97632" lon="-0.08731">
        <ele>562.03</ele>
        <time>2013-12-14T11:37:27Z</time>
      </trkpt>
      <trkpt lat="42.97633" lon="-0.08735">
        <ele>561.55</ele>
        <time>2013-12-14T11:37:28Z</time>
      </trkpt>
      <trkpt lat="42.97633" lon="-0.0874">
        <ele>561.07</ele>
        <time>2013-12-14T11:37:29Z</time>
      </trkpt>
      <trkpt lat="42.97635" lon="-0.08744">
        <ele>561.07</ele>
        <time>2013-12-14T11:37:30Z</time>
      </trkpt>
      <trkpt lat="42.97636" lon="-0.0875">
        <ele>560.59</ele>
        <time>2013-12-14T11:37:31Z</time>
      </trkpt>
      <trkpt lat="42.97638" lon="-0.08755">
        <ele>560.59</ele>
        <time>2013-12-14T11:37:32Z</time>
      </trkpt>
      <trkpt lat="42.97639" lon="-0.0876">
        <ele>560.11</ele>
        <time>2013-12-14T11:37:33Z</time>
      </trkpt>
      <trkpt lat="42.97642" lon="-0.08765">
        <ele>560.11</ele>
        <time>2013-12-14T11:37:34Z</time>
      </trkpt>
      <trkpt lat="42.97644" lon="-0.08771">
        <ele>559.14</ele>
        <time>2013-12-14T11:37:35Z</time>
      </trkpt>
      <trkpt lat="42.97647" lon="-0.08776">
        <ele>558.66</ele>
        <time>2013-12-14T11:37:36Z</time>
      </trkpt>
      <trkpt lat="42.97651" lon="-0.08782">
        <ele>558.18</ele>
        <time>2013-12-14T11:37:37Z</time>
      </trkpt>
      <trkpt lat="42.97664" lon="-0.08799">
        <ele>556.26</ele>
        <time>2013-12-14T11:37:40Z</time>
      </trkpt>
      <trkpt lat="42.97668" lon="-0.08806">
        <ele>556.26</ele>
        <time>2013-12-14T11:37:41Z</time>
      </trkpt>
      <trkpt lat="42.97696" lon="-0.0884">
        <ele>552.9</ele>
        <time>2013-12-14T11:37:47Z</time>
      </trkpt>
      <trkpt lat="42.97705" lon="-0.08852">
        <ele>551.93</ele>
        <time>2013-12-14T11:37:49Z</time>
      </trkpt>
      <trkpt lat="42.97715" lon="-0.08863">
        <ele>550.49</ele>
        <time>2013-12-14T11:37:51Z</time>
      </trkpt>
      <trkpt lat="42.9772" lon="-0.0887">
        <ele>550.01</ele>
        <time>2013-12-14T11:37:52Z</time>
      </trkpt>
      <trkpt lat="42.97725" lon="-0.08876">
        <ele>549.05</ele>
        <time>2013-12-14T11:37:53Z</time>
      </trkpt>
      <trkpt lat="42.9773" lon="-0.08881">
        <ele>548.57</ele>
        <time>2013-12-14T11:37:54Z</time>
      </trkpt>
      <trkpt lat="42.97736" lon="-0.08884">
        <ele>547.61</ele>
        <time>2013-12-14T11:37:55Z</time>
      </trkpt>
      <trkpt lat="42.97742" lon="-0.08886">
        <ele>547.13</ele>
        <time>2013-12-14T11:37:56Z</time>
      </trkpt>
      <trkpt lat="42.97748" lon="-0.08889">
        <ele>547.13</ele>
        <time>2013-12-14T11:37:57Z</time>
      </trkpt>
      <trkpt lat="42.97763" lon="-0.08891">
        <ele>546.17</ele>
        <time>2013-12-14T11:38:00Z</time>
      </trkpt>
      <trkpt lat="42.97768" lon="-0.08889">
        <ele>545.69</ele>
        <time>2013-12-14T11:38:01Z</time>
      </trkpt>
      <trkpt lat="42.97773" lon="-0.08887">
        <ele>544.72</ele>
        <time>2013-12-14T11:38:02Z</time>
      </trkpt>
      <trkpt lat="42.97779" lon="-0.08887">
        <ele>544.24</ele>
        <time>2013-12-14T11:38:03Z</time>
      </trkpt>
      <trkpt lat="42.97784" lon="-0.08889">
        <ele>544.72</ele>
        <time>2013-12-14T11:38:04Z</time>
      </trkpt>
      <trkpt lat="42.9779" lon="-0.08892">
        <ele>544.24</ele>
        <time>2013-12-14T11:38:05Z</time>
      </trkpt>
      <trkpt lat="42.97796" lon="-0.08896">
        <ele>543.76</ele>
        <time>2013-12-14T11:38:06Z</time>
      </trkpt>
      <trkpt lat="42.97801" lon="-0.08901">
        <ele>543.76</ele>
        <time>2013-12-14T11:38:07Z</time>
      </trkpt>
      <trkpt lat="42.97806" lon="-0.08906">
        <ele>542.8</ele>
        <time>2013-12-14T11:38:08Z</time>
      </trkpt>
      <trkpt lat="42.97832" lon="-0.08938">
        <ele>541.36</ele>
        <time>2013-12-14T11:38:13Z</time>
      </trkpt>
      <trkpt lat="42.97838" lon="-0.08943">
        <ele>541.36</ele>
        <time>2013-12-14T11:38:14Z</time>
      </trkpt>
      <trkpt lat="42.97844" lon="-0.08947">
        <ele>541.36</ele>
        <time>2013-12-14T11:38:15Z</time>
      </trkpt>
      <trkpt lat="42.9785" lon="-0.08951">
        <ele>540.88</ele>
        <time>2013-12-14T11:38:16Z</time>
      </trkpt>
      <trkpt lat="42.97856" lon="-0.08953">
        <ele>541.36</ele>
        <time>2013-12-14T11:38:17Z</time>
      </trkpt>
      <trkpt lat="42.97862" lon="-0.08954">
        <ele>540.88</ele>
        <time>2013-12-14T11:38:18Z</time>
      </trkpt>
      <trkpt lat="42.97868" lon="-0.08955">
        <ele>540.88</ele>
        <time>2013-12-14T11:38:19Z</time>
      </trkpt>
      <trkpt lat="42.97874" lon="-0.08958">
        <ele>540.4</ele>
        <time>2013-12-14T11:38:20Z</time>
      </trkpt>
      <trkpt lat="42.9788" lon="-0.08961">
        <ele>539.92</ele>
        <time>2013-12-14T11:38:21Z</time>
      </trkpt>
      <trkpt lat="42.97886" lon="-0.08965">
        <ele>539.92</ele>
        <time>2013-12-14T11:38:22Z</time>
      </trkpt>
      <trkpt lat="42.97892" lon="-0.0897">
        <ele>539.92</ele>
        <time>2013-12-14T11:38:23Z</time>
      </trkpt>
      <trkpt lat="42.9795" lon="-0.09019">
        <ele>541.36</ele>
        <time>2013-12-14T11:38:35Z</time>
      </trkpt>
      <trkpt lat="42.97975" lon="-0.09026">
        <ele>544.24</ele>
        <time>2013-12-14T11:38:43Z</time>
      </trkpt>
      <trkpt lat="42.98008" lon="-0.0904">
        <ele>547.61</ele>
        <time>2013-12-14T11:38:54Z</time>
      </trkpt>
      <trkpt lat="42.98011" lon="-0.09042">
        <ele>547.61</ele>
        <time>2013-12-14T11:38:55Z</time>
      </trkpt>
      <trkpt lat="42.98038" lon="-0.09056">
        <ele>550.01</ele>
        <time>2013-12-14T11:39:04Z</time>
      </trkpt>
      <trkpt lat="42.9804" lon="-0.09058">
        <ele>550.01</ele>
        <time>2013-12-14T11:39:05Z</time>
      </trkpt>
      <trkpt lat="42.98042" lon="-0.09061">
        <ele>550.01</ele>
        <time>2013-12-14T11:39:06Z</time>
      </trkpt>
      <trkpt lat="42.98046" lon="-0.09067">
        <ele>550.49</ele>
        <time>2013-12-14T11:39:10Z</time>
      </trkpt>
      <trkpt lat="42.98047" lon="-0.09068">
        <ele>550.49</ele>
        <time>2013-12-14T11:39:12Z</time>
      </trkpt>
      <trkpt lat="42.98048" lon="-0.09074">
        <ele>550.49</ele>
        <time>2013-12-14T11:39:15Z</time>
      </trkpt>
      <trkpt lat="42.98051" lon="-0.09083">
        <ele>550.97</ele>
        <time>2013-12-14T11:39:23Z</time>
      </trkpt>
      <trkpt lat="42.98063" lon="-0.09089">
        <ele>550.97</ele>
        <time>2013-12-14T11:39:34Z</time>
      </trkpt>
      <trkpt lat="42.98064" lon="-0.09089">
        <ele>550.49</ele>
        <time>2013-12-14T11:39:35Z</time>
      </trkpt>
      <trkpt lat="42.98068" lon="-0.09089">
        <ele>550.97</ele>
        <time>2013-12-14T11:39:38Z</time>
      </trkpt>
      <trkpt lat="42.98081" lon="-0.09087">
        <ele>550.49</ele>
        <time>2013-12-14T11:39:49Z</time>
      </trkpt>
      <trkpt lat="42.9808" lon="-0.09089">
        <ele>550.49</ele>
        <time>2013-12-14T11:39:57Z</time>
      </trkpt>
      <trkpt lat="42.98076" lon="-0.09089">
        <ele>550.01</ele>
        <time>2013-12-14T11:39:59Z</time>
      </trkpt>
      <trkpt lat="42.98066" lon="-0.09091">
        <ele>550.97</ele>
        <time>2013-12-14T11:40:05Z</time>
      </trkpt>
      <trkpt lat="42.98057" lon="-0.09083">
        <ele>550.97</ele>
        <time>2013-12-14T11:40:13Z</time>
      </trkpt>
      <trkpt lat="42.98059" lon="-0.09087">
        <ele>550.49</ele>
        <time>2013-12-14T11:40:19Z</time>
      </trkpt>
      <trkpt lat="42.98073" lon="-0.09088">
        <ele>550.97</ele>
        <time>2013-12-14T11:40:25Z</time>
      </trkpt>
      <trkpt lat="42.98107" lon="-0.0909">
        <ele>550.01</ele>
        <time>2013-12-14T11:40:37Z</time>
      </trkpt>
      <trkpt lat="42.9812" lon="-0.09091">
        <ele>549.05</ele>
        <time>2013-12-14T11:40:40Z</time>
      </trkpt>
      <trkpt lat="42.98125" lon="-0.09092">
        <ele>549.53</ele>
        <time>2013-12-14T11:40:41Z</time>
      </trkpt>
      <trkpt lat="42.98129" lon="-0.09094">
        <ele>549.05</ele>
        <time>2013-12-14T11:40:42Z</time>
      </trkpt>
      <trkpt lat="42.98131" lon="-0.09097">
        <ele>549.05</ele>
        <time>2013-12-14T11:40:43Z</time>
      </trkpt>
      <trkpt lat="42.98133" lon="-0.09101">
        <ele>549.53</ele>
        <time>2013-12-14T11:40:44Z</time>
      </trkpt>
      <trkpt lat="42.98134" lon="-0.09105">
        <ele>550.01</ele>
        <time>2013-12-14T11:40:45Z</time>
      </trkpt>
      <trkpt lat="42.98135" lon="-0.09109">
        <ele>550.49</ele>
        <time>2013-12-14T11:40:46Z</time>
      </trkpt>
      <trkpt lat="42.98135" lon="-0.09113">
        <ele>550.01</ele>
        <time>2013-12-14T11:40:47Z</time>
      </trkpt>
      <trkpt lat="42.98143" lon="-0.09153">
        <ele>552.9</ele>
        <time>2013-12-14T11:41:00Z</time>
      </trkpt>
      <trkpt lat="42.98147" lon="-0.09186">
        <ele>555.78</ele>
        <time>2013-12-14T11:41:11Z</time>
      </trkpt>
      <trkpt lat="42.98157" lon="-0.09197">
        <ele>557.22</ele>
        <time>2013-12-14T11:41:16Z</time>
      </trkpt>
      <trkpt lat="42.98158" lon="-0.09199">
        <ele>557.22</ele>
        <time>2013-12-14T11:41:17Z</time>
      </trkpt>
      <trkpt lat="42.98158" lon="-0.09202">
        <ele>558.18</ele>
        <time>2013-12-14T11:41:18Z</time>
      </trkpt>
      <trkpt lat="42.98158" lon="-0.09205">
        <ele>558.66</ele>
        <time>2013-12-14T11:41:19Z</time>
      </trkpt>
      <trkpt lat="42.98159" lon="-0.09208">
        <ele>559.14</ele>
        <time>2013-12-14T11:41:20Z</time>
      </trkpt>
      <trkpt lat="42.9816" lon="-0.09211">
        <ele>559.14</ele>
        <time>2013-12-14T11:41:21Z</time>
      </trkpt>
      <trkpt lat="42.98161" lon="-0.09214">
        <ele>559.62</ele>
        <time>2013-12-14T11:41:22Z</time>
      </trkpt>
      <trkpt lat="42.98163" lon="-0.09215">
        <ele>559.62</ele>
        <time>2013-12-14T11:41:23Z</time>
      </trkpt>
      <trkpt lat="42.98166" lon="-0.09216">
        <ele>560.59</ele>
        <time>2013-12-14T11:41:24Z</time>
      </trkpt>
      <trkpt lat="42.98188" lon="-0.09216">
        <ele>561.07</ele>
        <time>2013-12-14T11:41:34Z</time>
      </trkpt>
      <trkpt lat="42.9819" lon="-0.09215">
        <ele>561.55</ele>
        <time>2013-12-14T11:41:35Z</time>
      </trkpt>
      <trkpt lat="42.98191" lon="-0.09215">
        <ele>561.55</ele>
        <time>2013-12-14T11:41:36Z</time>
      </trkpt>
      <trkpt lat="42.98193" lon="-0.09215">
        <ele>562.03</ele>
        <time>2013-12-14T11:41:37Z</time>
      </trkpt>
      <trkpt lat="42.98194" lon="-0.09217">
        <ele>562.03</ele>
        <time>2013-12-14T11:41:38Z</time>
      </trkpt>
      <trkpt lat="42.98195" lon="-0.09219">
        <ele>562.03</ele>
        <time>2013-12-14T11:41:39Z</time>
      </trkpt>
      <trkpt lat="42.98196" lon="-0.09221">
        <ele>562.03</ele>
        <time>2013-12-14T11:41:40Z</time>
      </trkpt>
      <trkpt lat="42.98196" lon="-0.09224">
        <ele>562.51</ele>
        <time>2013-12-14T11:41:41Z</time>
      </trkpt>
      <trkpt lat="42.98197" lon="-0.09226">
        <ele>562.03</ele>
        <time>2013-12-14T11:41:42Z</time>
      </trkpt>
      <trkpt lat="42.98197" lon="-0.09228">
        <ele>562.03</ele>
        <time>2013-12-14T11:41:43Z</time>
      </trkpt>
      <trkpt lat="42.98197" lon="-0.0923">
        <ele>562.51</ele>
        <time>2013-12-14T11:41:44Z</time>
      </trkpt>
      <trkpt lat="42.98197" lon="-0.09232">
        <ele>562.51</ele>
        <time>2013-12-14T11:41:45Z</time>
      </trkpt>
      <trkpt lat="42.98198" lon="-0.09234">
        <ele>562.03</ele>
        <time>2013-12-14T11:41:46Z</time>
      </trkpt>
      <trkpt lat="42.982" lon="-0.09252">
        <ele>563.47</ele>
        <time>2013-12-14T11:41:55Z</time>
      </trkpt>
      <trkpt lat="42.98207" lon="-0.09262">
        <ele>564.43</ele>
        <time>2013-12-14T11:42:06Z</time>
      </trkpt>
      <trkpt lat="42.98208" lon="-0.09261">
        <ele>563.47</ele>
        <time>2013-12-14T11:42:07Z</time>
      </trkpt>
      <trkpt lat="42.9821" lon="-0.09262">
        <ele>563.95</ele>
        <time>2013-12-14T11:42:08Z</time>
      </trkpt>
      <trkpt lat="42.98211" lon="-0.09264">
        <ele>563.95</ele>
        <time>2013-12-14T11:42:09Z</time>
      </trkpt>
      <trkpt lat="42.9821" lon="-0.09265">
        <ele>564.43</ele>
        <time>2013-12-14T11:42:10Z</time>
      </trkpt>
      <trkpt lat="42.98209" lon="-0.09261">
        <ele>563.95</ele>
        <time>2013-12-14T11:42:14Z</time>
      </trkpt>
      <trkpt lat="42.98202" lon="-0.09259">
        <ele>564.43</ele>
        <time>2013-12-14T11:42:22Z</time>
      </trkpt>
      <trkpt lat="42.982" lon="-0.09253">
        <ele>563.95</ele>
        <time>2013-12-14T11:42:24Z</time>
      </trkpt>
      <trkpt lat="42.98204" lon="-0.09251">
        <ele>562.99</ele>
        <time>2013-12-14T11:42:28Z</time>
      </trkpt>
      <trkpt lat="42.98225" lon="-0.09277">
        <ele>564.43</ele>
        <time>2013-12-14T11:42:43Z</time>
      </trkpt>
      <trkpt lat="42.98241" lon="-0.09293">
        <ele>564.43</ele>
        <time>2013-12-14T11:42:56Z</time>
      </trkpt>
      <trkpt lat="42.9824" lon="-0.09296">
        <ele>564.43</ele>
        <time>2013-12-14T11:43:19Z</time>
      </trkpt>
      <trkpt lat="42.98247" lon="-0.09309">
        <ele>563.95</ele>
        <time>2013-12-14T11:43:26Z</time>
      </trkpt>
      <trkpt lat="42.98256" lon="-0.09313">
        <ele>561.07</ele>
        <time>2013-12-14T11:43:35Z</time>
      </trkpt>
      <trkpt lat="42.98256" lon="-0.09311">
        <ele>560.59</ele>
        <time>2013-12-14T11:44:06Z</time>
      </trkpt>
      <trkpt lat="42.9827" lon="-0.0931">
        <ele>560.59</ele>
        <time>2013-12-14T11:44:19Z</time>
      </trkpt>
      <trkpt lat="42.98281" lon="-0.09314">
        <ele>558.66</ele>
        <time>2013-12-14T11:44:23Z</time>
      </trkpt>
      <trkpt lat="42.98288" lon="-0.0933">
        <ele>555.3</ele>
        <time>2013-12-14T11:44:29Z</time>
      </trkpt>
      <trkpt lat="42.98295" lon="-0.09338">
        <ele>552.41</ele>
        <time>2013-12-14T11:44:32Z</time>
      </trkpt>
      <trkpt lat="42.983" lon="-0.09343">
        <ele>550.49</ele>
        <time>2013-12-14T11:44:35Z</time>
      </trkpt>
      <trkpt lat="42.98305" lon="-0.09346">
        <ele>548.09</ele>
        <time>2013-12-14T11:44:37Z</time>
      </trkpt>
      <trkpt lat="42.98308" lon="-0.09348">
        <ele>547.13</ele>
        <time>2013-12-14T11:44:38Z</time>
      </trkpt>
      <trkpt lat="42.98324" lon="-0.0936">
        <ele>543.28</ele>
        <time>2013-12-14T11:44:43Z</time>
      </trkpt>
      <trkpt lat="42.98336" lon="-0.09366">
        <ele>539.44</ele>
        <time>2013-12-14T11:44:47Z</time>
      </trkpt>
      <trkpt lat="42.98346" lon="-0.09376">
        <ele>537.03</ele>
        <time>2013-12-14T11:44:50Z</time>
      </trkpt>
      <trkpt lat="42.9835" lon="-0.09379">
        <ele>535.59</ele>
        <time>2013-12-14T11:44:51Z</time>
      </trkpt>
      <trkpt lat="42.98354" lon="-0.09381">
        <ele>535.11</ele>
        <time>2013-12-14T11:44:52Z</time>
      </trkpt>
      <trkpt lat="42.98358" lon="-0.09382">
        <ele>534.15</ele>
        <time>2013-12-14T11:44:53Z</time>
      </trkpt>
      <trkpt lat="42.98362" lon="-0.09383">
        <ele>533.67</ele>
        <time>2013-12-14T11:44:54Z</time>
      </trkpt>
      <trkpt lat="42.98369" lon="-0.09382">
        <ele>532.71</ele>
        <time>2013-12-14T11:44:56Z</time>
      </trkpt>
      <trkpt lat="42.98378" lon="-0.0938">
        <ele>531.75</ele>
        <time>2013-12-14T11:45:00Z</time>
      </trkpt>
      <trkpt lat="42.98387" lon="-0.09377">
        <ele>531.75</ele>
        <time>2013-12-14T11:45:12Z</time>
      </trkpt>
      <trkpt lat="42.98386" lon="-0.09378">
        <ele>531.27</ele>
        <time>2013-12-14T11:45:34Z</time>
      </trkpt>
      <trkpt lat="42.98386" lon="-0.09378">
        <ele>531.27</ele>
        <time>2013-12-14T11:45:41Z</time>
      </trkpt>
      <trkpt lat="42.98387" lon="-0.09379">
        <ele>531.75</ele>
        <time>2013-12-14T11:45:44Z</time>
      </trkpt>
      <trkpt lat="42.98383" lon="-0.09393">
        <ele>531.75</ele>
        <time>2013-12-14T11:45:52Z</time>
      </trkpt>
      <trkpt lat="42.9838" lon="-0.09386">
        <ele>530.3</ele>
        <time>2013-12-14T11:46:02Z</time>
      </trkpt>
      <trkpt lat="42.9838" lon="-0.09388">
        <ele>530.3</ele>
        <time>2013-12-14T11:46:31Z</time>
      </trkpt>
      <trkpt lat="42.98378" lon="-0.0939">
        <ele>530.79</ele>
        <time>2013-12-14T11:47:00Z</time>
      </trkpt>
      <trkpt lat="42.98379" lon="-0.09391">
        <ele>531.27</ele>
        <time>2013-12-14T11:47:12Z</time>
      </trkpt>
      <trkpt lat="42.98379" lon="-0.09389">
        <ele>531.75</ele>
        <time>2013-12-14T11:47:14Z</time>
      </trkpt>
      <trkpt lat="42.98389" lon="-0.09377">
        <ele>530.79</ele>
        <time>2013-12-14T11:47:21Z</time>
      </trkpt>
      <trkpt lat="42.98395" lon="-0.0936">
        <ele>528.38</ele>
        <time>2013-12-14T11:47:25Z</time>
      </trkpt>
      <trkpt lat="42.98397" lon="-0.09354">
        <ele>528.38</ele>
        <time>2013-12-14T11:47:26Z</time>
      </trkpt>
      <trkpt lat="42.98407" lon="-0.0933">
        <ele>527.42</ele>
        <time>2013-12-14T11:47:30Z</time>
      </trkpt>
      <trkpt lat="42.98432" lon="-0.0927">
        <ele>527.42</ele>
        <time>2013-12-14T11:47:43Z</time>
      </trkpt>
      <trkpt lat="42.9844" lon="-0.09249">
        <ele>527.9</ele>
        <time>2013-12-14T11:47:49Z</time>
      </trkpt>
      <trkpt lat="42.98476" lon="-0.09249">
        <ele>528.86</ele>
        <time>2013-12-14T11:48:01Z</time>
      </trkpt>
      <trkpt lat="42.9849" lon="-0.09257">
        <ele>528.86</ele>
        <time>2013-12-14T11:48:06Z</time>
      </trkpt>
      <trkpt lat="42.98501" lon="-0.09271">
        <ele>526.94</ele>
        <time>2013-12-14T11:48:11Z</time>
      </trkpt>
      <trkpt lat="42.98527" lon="-0.09296">
        <ele>523.58</ele>
        <time>2013-12-14T11:48:21Z</time>
      </trkpt>
      <trkpt lat="42.98534" lon="-0.09302">
        <ele>521.17</ele>
        <time>2013-12-14T11:48:24Z</time>
      </trkpt>
      <trkpt lat="42.98539" lon="-0.0929">
        <ele>517.81</ele>
        <time>2013-12-14T11:48:30Z</time>
      </trkpt>
      <trkpt lat="42.9854" lon="-0.09288">
        <ele>516.37</ele>
        <time>2013-12-14T11:48:31Z</time>
      </trkpt>
      <trkpt lat="42.98544" lon="-0.09276">
        <ele>513</ele>
        <time>2013-12-14T11:48:35Z</time>
      </trkpt>
      <trkpt lat="42.98551" lon="-0.09265">
        <ele>509.64</ele>
        <time>2013-12-14T11:48:39Z</time>
      </trkpt>
      <trkpt lat="42.98561" lon="-0.0926">
        <ele>506.75</ele>
        <time>2013-12-14T11:48:42Z</time>
      </trkpt>
      <trkpt lat="42.9857" lon="-0.09255">
        <ele>503.39</ele>
        <time>2013-12-14T11:48:45Z</time>
      </trkpt>
      <trkpt lat="42.98572" lon="-0.09253">
        <ele>503.39</ele>
        <time>2013-12-14T11:48:46Z</time>
      </trkpt>
      <trkpt lat="42.98581" lon="-0.09252">
        <ele>501.95</ele>
        <time>2013-12-14T11:48:49Z</time>
      </trkpt>
      <trkpt lat="42.98587" lon="-0.09249">
        <ele>500.02</ele>
        <time>2013-12-14T11:48:52Z</time>
      </trkpt>
      <trkpt lat="42.98589" lon="-0.09249">
        <ele>499.54</ele>
        <time>2013-12-14T11:48:53Z</time>
      </trkpt>
      <trkpt lat="42.98597" lon="-0.09254">
        <ele>499.06</ele>
        <time>2013-12-14T11:49:06Z</time>
      </trkpt>
      <trkpt lat="42.98606" lon="-0.09259">
        <ele>498.58</ele>
        <time>2013-12-14T11:49:10Z</time>
      </trkpt>
      <trkpt lat="42.98614" lon="-0.09264">
        <ele>497.62</ele>
        <time>2013-12-14T11:49:12Z</time>
      </trkpt>
      <trkpt lat="42.98623" lon="-0.09271">
        <ele>496.66</ele>
        <time>2013-12-14T11:49:14Z</time>
      </trkpt>
      <trkpt lat="42.98651" lon="-0.09295">
        <ele>493.29</ele>
        <time>2013-12-14T11:49:20Z</time>
      </trkpt>
      <trkpt lat="42.98655" lon="-0.09299">
        <ele>492.81</ele>
        <time>2013-12-14T11:49:21Z</time>
      </trkpt>
      <trkpt lat="42.98659" lon="-0.09303">
        <ele>492.33</ele>
        <time>2013-12-14T11:49:22Z</time>
      </trkpt>
      <trkpt lat="42.98677" lon="-0.09325">
        <ele>489.93</ele>
        <time>2013-12-14T11:49:27Z</time>
      </trkpt>
      <trkpt lat="42.98689" lon="-0.09334">
        <ele>488.01</ele>
        <time>2013-12-14T11:49:30Z</time>
      </trkpt>
      <trkpt lat="42.98705" lon="-0.09318">
        <ele>486.08</ele>
        <time>2013-12-14T11:49:35Z</time>
      </trkpt>
      <trkpt lat="42.98723" lon="-0.09274">
        <ele>486.08</ele>
        <time>2013-12-14T11:49:45Z</time>
      </trkpt>
      <trkpt lat="42.98742" lon="-0.09242">
        <ele>486.08</ele>
        <time>2013-12-14T11:49:55Z</time>
      </trkpt>
      <trkpt lat="42.98747" lon="-0.09233">
        <ele>485.12</ele>
        <time>2013-12-14T11:49:58Z</time>
      </trkpt>
      <trkpt lat="42.98747" lon="-0.09225">
        <ele>482.72</ele>
        <time>2013-12-14T11:50:01Z</time>
      </trkpt>
      <trkpt lat="42.98748" lon="-0.09221">
        <ele>481.28</ele>
        <time>2013-12-14T11:50:03Z</time>
      </trkpt>
      <trkpt lat="42.9876" lon="-0.09217">
        <ele>477.43</ele>
        <time>2013-12-14T11:50:08Z</time>
      </trkpt>
      <trkpt lat="42.98774" lon="-0.09211">
        <ele>473.59</ele>
        <time>2013-12-14T11:50:13Z</time>
      </trkpt>
      <trkpt lat="42.98791" lon="-0.09216">
        <ele>470.22</ele>
        <time>2013-12-14T11:50:19Z</time>
      </trkpt>
      <trkpt lat="42.98798" lon="-0.09216">
        <ele>468.78</ele>
        <time>2013-12-14T11:50:22Z</time>
      </trkpt>
      <trkpt lat="42.98799" lon="-0.09201">
        <ele>464.45</ele>
        <time>2013-12-14T11:50:29Z</time>
      </trkpt>
      <trkpt lat="42.98799" lon="-0.09191">
        <ele>461.57</ele>
        <time>2013-12-14T11:50:32Z</time>
      </trkpt>
      <trkpt lat="42.988" lon="-0.09188">
        <ele>461.09</ele>
        <time>2013-12-14T11:50:33Z</time>
      </trkpt>
      <trkpt lat="42.98805" lon="-0.09186">
        <ele>459.65</ele>
        <time>2013-12-14T11:50:35Z</time>
      </trkpt>
      <trkpt lat="42.98813" lon="-0.09186">
        <ele>458.69</ele>
        <time>2013-12-14T11:50:37Z</time>
      </trkpt>
      <trkpt lat="42.9882" lon="-0.09185">
        <ele>457.24</ele>
        <time>2013-12-14T11:50:39Z</time>
      </trkpt>
      <trkpt lat="42.98826" lon="-0.09183">
        <ele>455.8</ele>
        <time>2013-12-14T11:50:41Z</time>
      </trkpt>
      <trkpt lat="42.98842" lon="-0.09181">
        <ele>451.96</ele>
        <time>2013-12-14T11:50:45Z</time>
      </trkpt>
      <trkpt lat="42.9886" lon="-0.09187">
        <ele>449.07</ele>
        <time>2013-12-14T11:50:49Z</time>
      </trkpt>
      <trkpt lat="42.98877" lon="-0.0919">
        <ele>444.27</ele>
        <time>2013-12-14T11:50:53Z</time>
      </trkpt>
      <trkpt lat="42.98882" lon="-0.09191">
        <ele>444.27</ele>
        <time>2013-12-14T11:50:54Z</time>
      </trkpt>
      <trkpt lat="42.98892" lon="-0.09192">
        <ele>442.34</ele>
        <time>2013-12-14T11:50:56Z</time>
      </trkpt>
      <trkpt lat="42.98913" lon="-0.09199">
        <ele>442.82</ele>
        <time>2013-12-14T11:51:00Z</time>
      </trkpt>
      <trkpt lat="42.98933" lon="-0.09172">
        <ele>441.38</ele>
        <time>2013-12-14T11:51:09Z</time>
      </trkpt>
      <trkpt lat="42.98943" lon="-0.09147">
        <ele>442.34</ele>
        <time>2013-12-14T11:51:17Z</time>
      </trkpt>
      <trkpt lat="42.98944" lon="-0.09144">
        <ele>441.38</ele>
        <time>2013-12-14T11:51:33Z</time>
      </trkpt>
      <trkpt lat="42.98946" lon="-0.09143">
        <ele>442.34</ele>
        <time>2013-12-14T11:52:04Z</time>
      </trkpt>
      <trkpt lat="42.98947" lon="-0.09143">
        <ele>441.86</ele>
        <time>2013-12-14T11:52:18Z</time>
      </trkpt>
      <trkpt lat="42.98948" lon="-0.09131">
        <ele>441.38</ele>
        <time>2013-12-14T11:52:22Z</time>
      </trkpt>
      <trkpt lat="42.9895" lon="-0.09116">
        <ele>440.9</ele>
        <time>2013-12-14T11:52:25Z</time>
      </trkpt>
      <trkpt lat="42.98953" lon="-0.09093">
        <ele>440.42</ele>
        <time>2013-12-14T11:52:29Z</time>
      </trkpt>
      <trkpt lat="42.98961" lon="-0.09039">
        <ele>439.46</ele>
        <time>2013-12-14T11:52:37Z</time>
      </trkpt>
      <trkpt lat="42.98977" lon="-0.08962">
        <ele>437.54</ele>
        <time>2013-12-14T11:52:50Z</time>
      </trkpt>
      <trkpt lat="42.98982" lon="-0.08956">
        <ele>438.02</ele>
        <time>2013-12-14T11:52:52Z</time>
      </trkpt>
      <trkpt lat="42.9903" lon="-0.08967">
        <ele>436.1</ele>
        <time>2013-12-14T11:53:03Z</time>
      </trkpt>
      <trkpt lat="42.99138" lon="-0.09">
        <ele>433.21</ele>
        <time>2013-12-14T11:53:21Z</time>
      </trkpt>
      <trkpt lat="42.99228" lon="-0.09041">
        <ele>433.21</ele>
        <time>2013-12-14T11:53:36Z</time>
      </trkpt>
      <trkpt lat="42.99316" lon="-0.09085">
        <ele>432.73</ele>
        <time>2013-12-14T11:53:52Z</time>
      </trkpt>
      <trkpt lat="42.99321" lon="-0.09088">
        <ele>433.21</ele>
        <time>2013-12-14T11:53:53Z</time>
      </trkpt>
      <trkpt lat="42.9934" lon="-0.09097">
        <ele>434.17</ele>
        <time>2013-12-14T11:53:57Z</time>
      </trkpt>
      <trkpt lat="42.99437" lon="-0.09142">
        <ele>436.1</ele>
        <time>2013-12-14T11:54:17Z</time>
      </trkpt>
      <trkpt lat="42.99442" lon="-0.09144">
        <ele>436.1</ele>
        <time>2013-12-14T11:54:18Z</time>
      </trkpt>
      <trkpt lat="42.99535" lon="-0.09157">
        <ele>437.06</ele>
        <time>2013-12-14T11:54:36Z</time>
      </trkpt>
      <trkpt lat="42.9962" lon="-0.09191">
        <ele>438.5</ele>
        <time>2013-12-14T11:54:53Z</time>
      </trkpt>
      <trkpt lat="42.99663" lon="-0.09211">
        <ele>439.94</ele>
        <time>2013-12-14T11:55:02Z</time>
      </trkpt>
      <trkpt lat="42.99676" lon="-0.09223">
        <ele>440.42</ele>
        <time>2013-12-14T11:55:05Z</time>
      </trkpt>
      <trkpt lat="42.99702" lon="-0.09262">
        <ele>441.86</ele>
        <time>2013-12-14T11:55:13Z</time>
      </trkpt>
      <trkpt lat="42.99715" lon="-0.09282">
        <ele>442.34</ele>
        <time>2013-12-14T11:55:17Z</time>
      </trkpt>
      <trkpt lat="42.99765" lon="-0.09354">
        <ele>445.71</ele>
        <time>2013-12-14T11:55:32Z</time>
      </trkpt>
      <trkpt lat="42.9979" lon="-0.09397">
        <ele>448.11</ele>
        <time>2013-12-14T11:55:41Z</time>
      </trkpt>
      <trkpt lat="42.99836" lon="-0.09465">
        <ele>450.03</ele>
        <time>2013-12-14T11:55:56Z</time>
      </trkpt>
      <trkpt lat="42.99869" lon="-0.09513">
        <ele>449.55</ele>
        <time>2013-12-14T11:56:05Z</time>
      </trkpt>
      <trkpt lat="42.99877" lon="-0.09523">
        <ele>449.55</ele>
        <time>2013-12-14T11:56:07Z</time>
      </trkpt>
      <trkpt lat="42.99926" lon="-0.09595">
        <ele>450.03</ele>
        <time>2013-12-14T11:56:20Z</time>
      </trkpt>
      <trkpt lat="42.99944" lon="-0.09624">
        <ele>450.52</ele>
        <time>2013-12-14T11:56:26Z</time>
      </trkpt>
      <trkpt lat="42.99962" lon="-0.09633">
        <ele>451</ele>
        <time>2013-12-14T11:56:31Z</time>
      </trkpt>
      <trkpt lat="43.00012" lon="-0.09607">
        <ele>450.03</ele>
        <time>2013-12-14T11:56:44Z</time>
      </trkpt>
      <trkpt lat="43.00092" lon="-0.09562">
        <ele>447.15</ele>
        <time>2013-12-14T11:56:59Z</time>
      </trkpt>
      <trkpt lat="43.00107" lon="-0.09547">
        <ele>446.19</ele>
        <time>2013-12-14T11:57:02Z</time>
      </trkpt>
      <trkpt lat="43.00133" lon="-0.09525">
        <ele>446.19</ele>
        <time>2013-12-14T11:57:08Z</time>
      </trkpt>
      <trkpt lat="43.00126" lon="-0.09534">
        <ele>446.67</ele>
        <time>2013-12-14T11:57:12Z</time>
      </trkpt>
      <trkpt lat="43.00133" lon="-0.09525">
        <ele>446.19</ele>
        <time>2013-12-14T11:57:17Z</time>
      </trkpt>
      <trkpt lat="43.00133" lon="-0.09537">
        <ele>447.15</ele>
        <time>2013-12-14T11:57:21Z</time>
      </trkpt>
      <trkpt lat="43.00132" lon="-0.09545">
        <ele>447.15</ele>
        <time>2013-12-14T11:57:24Z</time>
      </trkpt>
      <trkpt lat="43.00122" lon="-0.09545">
        <ele>446.67</ele>
        <time>2013-12-14T11:57:29Z</time>
      </trkpt>
      <trkpt lat="43.00118" lon="-0.09545">
        <ele>447.15</ele>
        <time>2013-12-14T11:57:31Z</time>
      </trkpt>
      <trkpt lat="43.0011" lon="-0.09553">
        <ele>447.15</ele>
        <time>2013-12-14T11:57:38Z</time>
      </trkpt>
      <trkpt lat="43.00108" lon="-0.09554">
        <ele>447.15</ele>
        <time>2013-12-14T11:57:41Z</time>
      </trkpt>
      <trkpt lat="43.00103" lon="-0.09562">
        <ele>447.15</ele>
        <time>2013-12-14T11:57:53Z</time>
      </trkpt>
      <trkpt lat="43.00102" lon="-0.09562">
        <ele>447.63</ele>
        <time>2013-12-14T11:58:24Z</time>
      </trkpt>
      <trkpt lat="43.00101" lon="-0.09561">
        <ele>448.11</ele>
        <time>2013-12-14T11:58:43Z</time>
      </trkpt>
      <trkpt lat="43.00092" lon="-0.09569">
        <ele>448.11</ele>
        <time>2013-12-14T11:58:49Z</time>
      </trkpt>
      <trkpt lat="43.00064" lon="-0.09588">
        <ele>449.07</ele>
        <time>2013-12-14T11:59:02Z</time>
      </trkpt>
      <trkpt lat="43.00032" lon="-0.09605">
        <ele>450.03</ele>
        <time>2013-12-14T11:59:14Z</time>
      </trkpt>
      <trkpt lat="42.99978" lon="-0.09632">
        <ele>451</ele>
        <time>2013-12-14T11:59:32Z</time>
      </trkpt>
      <trkpt lat="42.99961" lon="-0.09646">
        <ele>451.96</ele>
        <time>2013-12-14T11:59:38Z</time>
      </trkpt>
      <trkpt lat="42.99966" lon="-0.09633">
        <ele>451.48</ele>
        <time>2013-12-14T11:59:45Z</time>
      </trkpt>
      <trkpt lat="42.99963" lon="-0.09644">
        <ele>451.96</ele>
        <time>2013-12-14T11:59:50Z</time>
      </trkpt>
      <trkpt lat="42.99948" lon="-0.09629">
        <ele>451.48</ele>
        <time>2013-12-14T11:59:55Z</time>
      </trkpt>
      <trkpt lat="42.99941" lon="-0.09624">
        <ele>451.48</ele>
        <time>2013-12-14T11:59:57Z</time>
      </trkpt>
      <trkpt lat="42.99932" lon="-0.09615">
        <ele>451</ele>
        <time>2013-12-14T11:59:59Z</time>
      </trkpt>
      <trkpt lat="42.99863" lon="-0.09514">
        <ele>449.55</ele>
        <time>2013-12-14T12:00:15Z</time>
      </trkpt>
      <trkpt lat="42.99824" lon="-0.09458">
        <ele>450.52</ele>
        <time>2013-12-14T12:00:26Z</time>
      </trkpt>
      <trkpt lat="42.99831" lon="-0.09459">
        <ele>451</ele>
        <time>2013-12-14T12:00:32Z</time>
      </trkpt>
      <trkpt lat="42.99869" lon="-0.09514">
        <ele>449.55</ele>
        <time>2013-12-14T12:00:44Z</time>
      </trkpt>
      <trkpt lat="42.99877" lon="-0.09525">
        <ele>449.07</ele>
        <time>2013-12-14T12:00:46Z</time>
      </trkpt>
      <trkpt lat="42.9989" lon="-0.09541">
        <ele>449.07</ele>
        <time>2013-12-14T12:00:49Z</time>
      </trkpt>
      <trkpt lat="42.99936" lon="-0.09611">
        <ele>450.52</ele>
        <time>2013-12-14T12:01:00Z</time>
      </trkpt>
      <trkpt lat="42.99945" lon="-0.09623">
        <ele>450.52</ele>
        <time>2013-12-14T12:01:02Z</time>
      </trkpt>
      <trkpt lat="42.99974" lon="-0.09627">
        <ele>451</ele>
        <time>2013-12-14T12:01:07Z</time>
      </trkpt>
      <trkpt lat="43.00068" lon="-0.09577">
        <ele>448.11</ele>
        <time>2013-12-14T12:01:21Z</time>
      </trkpt>
      <trkpt lat="43.00091" lon="-0.09565">
        <ele>447.15</ele>
        <time>2013-12-14T12:01:24Z</time>
      </trkpt>
      <trkpt lat="43.00111" lon="-0.09545">
        <ele>446.19</ele>
        <time>2013-12-14T12:01:27Z</time>
      </trkpt>
      <trkpt lat="43.00117" lon="-0.09539">
        <ele>445.71</ele>
        <time>2013-12-14T12:01:28Z</time>
      </trkpt>
      <trkpt lat="43.00128" lon="-0.09527">
        <ele>446.67</ele>
        <time>2013-12-14T12:01:30Z</time>
      </trkpt>
      <trkpt lat="43.00159" lon="-0.09495">
        <ele>445.71</ele>
        <time>2013-12-14T12:01:36Z</time>
      </trkpt>
      <trkpt lat="43.00185" lon="-0.09488">
        <ele>445.23</ele>
        <time>2013-12-14T12:01:40Z</time>
      </trkpt>
      <trkpt lat="43.0026" lon="-0.09515">
        <ele>445.23</ele>
        <time>2013-12-14T12:01:51Z</time>
      </trkpt>
      <trkpt lat="43.00277" lon="-0.09494">
        <ele>444.27</ele>
        <time>2013-12-14T12:01:56Z</time>
      </trkpt>
      <trkpt lat="43.00291" lon="-0.09435">
        <ele>442.82</ele>
        <time>2013-12-14T12:02:04Z</time>
      </trkpt>
      <trkpt lat="43.00297" lon="-0.09435">
        <ele>442.82</ele>
        <time>2013-12-14T12:02:05Z</time>
      </trkpt>
      <trkpt lat="43.00389" lon="-0.09421">
        <ele>441.86</ele>
        <time>2013-12-14T12:02:18Z</time>
      </trkpt>
      <trkpt lat="43.00469" lon="-0.09414">
        <ele>440.42</ele>
        <time>2013-12-14T12:02:30Z</time>
      </trkpt>
      <trkpt lat="43.00483" lon="-0.09413">
        <ele>440.42</ele>
        <time>2013-12-14T12:02:32Z</time>
      </trkpt>
      <trkpt lat="43.00494" lon="-0.09411">
        <ele>439.94</ele>
        <time>2013-12-14T12:02:34Z</time>
      </trkpt>
      <trkpt lat="43.00583" lon="-0.09401">
        <ele>437.54</ele>
        <time>2013-12-14T12:02:46Z</time>
      </trkpt>
      <trkpt lat="43.00622" lon="-0.09395">
        <ele>437.06</ele>
        <time>2013-12-14T12:02:52Z</time>
      </trkpt>
      <trkpt lat="43.0065" lon="-0.09367">
        <ele>435.61</ele>
        <time>2013-12-14T12:02:59Z</time>
      </trkpt>
      <trkpt lat="43.00679" lon="-0.09399">
        <ele>436.1</ele>
        <time>2013-12-14T12:03:05Z</time>
      </trkpt>
      <trkpt lat="43.00689" lon="-0.0948">
        <ele>435.61</ele>
        <time>2013-12-14T12:03:13Z</time>
      </trkpt>
      <trkpt lat="43.00704" lon="-0.09509">
        <ele>436.1</ele>
        <time>2013-12-14T12:03:18Z</time>
      </trkpt>
      <trkpt lat="43.0072" lon="-0.09502">
        <ele>435.13</ele>
        <time>2013-12-14T12:03:21Z</time>
      </trkpt>
      <trkpt lat="43.00738" lon="-0.09497">
        <ele>436.1</ele>
        <time>2013-12-14T12:03:28Z</time>
      </trkpt>
      <trkpt lat="43.00739" lon="-0.09498">
        <ele>435.61</ele>
        <time>2013-12-14T12:03:49Z</time>
      </trkpt>
      <trkpt lat="43.0074" lon="-0.09499">
        <ele>435.61</ele>
        <time>2013-12-14T12:04:11Z</time>
      </trkpt>
      <trkpt lat="43.0074" lon="-0.09496">
        <ele>436.1</ele>
        <time>2013-12-14T12:04:26Z</time>
      </trkpt>
      <trkpt lat="43.0074" lon="-0.09496">
        <ele>435.61</ele>
        <time>2013-12-14T12:04:38Z</time>
      </trkpt>
      <trkpt lat="43.00739" lon="-0.09495">
        <ele>435.61</ele>
        <time>2013-12-14T12:04:52Z</time>
      </trkpt>
      <trkpt lat="43.00738" lon="-0.09495">
        <ele>435.61</ele>
        <time>2013-12-14T12:05:06Z</time>
      </trkpt>
      <trkpt lat="43.00737" lon="-0.09492">
        <ele>436.1</ele>
        <time>2013-12-14T12:05:11Z</time>
      </trkpt>
      <trkpt lat="43.00737" lon="-0.09492">
        <ele>438.02</ele>
        <time>2013-12-14T12:05:21Z</time>
      </trkpt>
      <trkpt lat="43.00736" lon="-0.09494">
        <ele>433.21</ele>
        <time>2013-12-14T12:05:31Z</time>
      </trkpt>
      <trkpt lat="43.00736" lon="-0.09494">
        <ele>436.58</ele>
        <time>2013-12-14T12:05:34Z</time>
      </trkpt>
      <trkpt lat="43.00737" lon="-0.09494">
        <ele>436.58</ele>
        <time>2013-12-14T12:05:35Z</time>
      </trkpt>
      <trkpt lat="43.00737" lon="-0.09494">
        <ele>435.61</ele>
        <time>2013-12-14T12:05:49Z</time>
      </trkpt>
    </trkseg>
  </trk>
</gpx>